Flight Track Log - Related Links

Times and Time Zones

All times are in EDT time to prevent confusion due to time zone crossing. See the N662US flight status page for this flight to view local times or setup timezone preferences in your user account.

Time Position Orientation Groundspeed Altitude Reporting Facility
EDT Latitude Longitude Course Direction KTS MPH feet Rate Location/Type
Fri 01:57:38 PM 33.6380 -84.4210 North 18 21  Level FlightAware ADS-B
Fri 01:58:22 PM 33.6370 -84.4210 180° South 13 15 127 Level FlightAware ADS-B
Fri 01:59:03 PM 33.6370 -84.4200 90° East 21 24 133 Level FlightAware ADS-B
Fri 02:00:03 PM 33.6370 -84.4170 90° East 23 26 140 Level FlightAware ADS-B
Fri 02:01:13 PM 33.6370 -84.4140 90° East 15 17 150 Level FlightAware ADS-B
Fri 02:01:35 PM 33.6370 -84.4130 90° East 17 20 165 Level FlightAware ADS-B
Fri 02:02:09 PM 33.6370 -84.4120 90° East 17 20 170 Level FlightAware ADS-B
Fri 02:02:47 PM 33.6370 -84.4110 90° East 14 16 178 Level FlightAware ADS-B
Fri 02:04:41 PM 33.6370 -84.4100 90° East 14 16 189 Level FlightAware ADS-B
Fri 02:05:10 PM 33.6370 -84.4090 90° East 18 21 230 Level FlightAware ADS-B
Fri 02:07:00 PM 33.7802 -84.5667 North  Level FlightAware Approximate
Fri 02:07:54 PM 33.6370 -84.4080 342° North 9 10  Level FlightAware ADS-B
Fri 02:08:00 PM 33.9052 -84.5754 342° North  Level FlightAware Approximate
Fri 02:08:32 PM 33.6360 -84.4080 180° South 18 21  Level FlightAware ADS-B
Fri 02:08:52 PM 33.6360 -84.4070 90° East 10 12 414 Level FlightAware ADS-B
Fri 02:10:14 PM 33.6350 -84.4080 220° Southwest 15 17 444 Level FlightAware ADS-B
Fri 02:12:00 PM 33.7718 -84.5667 North  Level FlightAware Approximate
Fri 02:13:00 PM 33.8972 -84.5722 342° North  Level FlightAware Approximate
Fri 02:13:22 PM 33.6350 -84.4750 342° North 191 220 2,000  Level FlightAware ADS-B
Fri 02:13:50 PM 33.6350 -84.5060 270° West 212 244 2,500 1,050 Climbing FlightAware ADS-B
Fri 02:14:02 PM 33.6390 -84.5200 289° West 223 257 2,700 923 Climbing FlightAware ADS-B
Fri 02:14:16 PM 33.6480 -84.5330 310° West 234 269 2,900 1,091 Climbing FlightAware ADS-B
Fri 02:14:46 PM 33.6740 -84.5600 319° Northwest 253 291 3,500 1,080 Climbing FlightAware ADS-B
Fri 02:15:06 PM 33.6940 -84.5780 323° Northwest 266 306 3,800 1,105 Climbing FlightAware ADS-B
Fri 02:15:24 PM 33.7150 -84.5840 347° North 273 314 4,200 1,625 Climbing FlightAware ADS-B
Fri 02:15:54 PM 33.7550 -84.5820 North 285 328 5,100 1,957 Climbing FlightAware ADS-B
Fri 02:16:10 PM 33.7750 -84.5810 North 291 335 5,700 2,182 Climbing FlightAware ADS-B
Fri 02:16:38 PM 33.8150 -84.5800 North 297 342 6,700 2,192 Climbing FlightAware ADS-B
Fri 02:17:02 PM 33.8460 -84.5800 360° North 302 348 7,600 2,060 Climbing FlightAware ADS-B
Fri 02:17:45 PM 33.9030 -84.5830 357° North 307 353 9,000 2,100 Climbing FlightAware ADS-B
Fri 02:18:02 PM 33.9320 -84.5930 344° North 312 359 9,700 1,811 Climbing FlightAware ADS-B
Fri 02:18:38 PM 33.9830 -84.6120 343° North 330 380 10,600 1,244 Climbing FlightAware ADS-B
Fri 02:19:24 PM 34.0540 -84.6380 343° North 366 421 11,400 955 Climbing FlightAware ADS-B
Fri 02:20:06 PM 34.1260 -84.6650 343° North 396 456 12,000 1,256 Climbing FlightAware ADS-B
Fri 02:20:50 PM 34.2040 -84.6940 343° North 412 474 13,200 1,857 Climbing FlightAware ADS-B
Fri 02:21:30 PM 34.2800 -84.7220 343° North 418 481 14,600 2,077 Climbing FlightAware ADS-B
Fri 02:22:08 PM 34.3480 -84.7530 339° North 422 486 15,900 1,935 Climbing FlightAware ADS-B
Fri 02:22:32 PM 34.3938 -84.7742 339° North 426 490 16,600 1,684 Climbing FlightAware ADS-B
Fri 02:23:05 PM 34.4555 -84.8015 340° North 432 497 17,500 1,594 Climbing FlightAware ADS-B
Fri 02:23:36 PM 34.5124 -84.8265 340° North 436 502 18,300 1,548 Climbing FlightAware ADS-B
Fri 02:24:07 PM 34.5722 -84.8525 340° North 440 506 19,100 1,574 Climbing FlightAware ADS-B
Fri 02:24:37 PM 34.6305 -84.8778 340° North 443 510 19,900 1,700 Climbing FlightAware ADS-B
Fri 02:25:07 PM 34.6886 -84.9033 340° North 442 509 20,800 1,672 Climbing FlightAware ADS-B
Fri 02:25:38 PM 34.7472 -84.9297 340° North 443 510 21,600 1,475 Climbing FlightAware ADS-B
Fri 02:26:08 PM 34.8056 -84.9555 340° North 445 512 22,300 1,400 Climbing FlightAware ADS-B
Fri 02:26:38 PM 34.8649 -84.9814 340° North 448 516 23,000 1,279 Climbing FlightAware ADS-B
Fri 02:27:09 PM 34.9258 -85.0092 339° North 451 519 23,600 1,180 Climbing FlightAware ADS-B
Fri 02:27:39 PM 34.9850 -85.0356 340° North 454 522 24,200 1,082 Climbing FlightAware ADS-B
Fri 02:28:10 PM 35.0463 -85.0631 340° North 457 526 24,700 960 Climbing FlightAware ADS-B
Fri 02:28:29 PM 35.0827 -85.0802 339° North 458 527 25,000 968 Climbing FlightAware ADS-B
Fri 02:28:41 PM 35.1057 -85.0977 328° Northwest 459 528 25,200 947 Climbing FlightAware ADS-B
Fri 02:28:48 PM 35.1160 -85.1073 323° Northwest 459 528 25,300 1,000 Climbing FlightAware ADS-B
Fri 02:28:59 PM 35.1346 -85.1284 317° Northwest 461 531 25,500 857 Climbing FlightAware ADS-B
Fri 02:29:30 PM 35.1761 -85.1894 310° West 468 539 25,900 689 Climbing FlightAware ADS-B
Fri 02:30:00 PM 35.2175 -85.2518 309° West 476 548 26,200 871 Climbing FlightAware ADS-B
Fri 02:30:32 PM 35.2615 -85.3193 309° West 476 548 26,800 1,065 Climbing FlightAware ADS-B
Fri 02:31:02 PM 35.3030 -85.3824 309° West 475 547 27,300 984 Climbing FlightAware ADS-B
Fri 02:31:33 PM 35.3457 -85.4497 308° West 475 547 27,800 1,014 Climbing FlightAware ADS-B
Fri 02:32:13 PM 35.3995 -85.5316 309° West 473 544 28,500 1,102 Climbing FlightAware ADS-B
Fri 02:33:11 PM 35.4780 -85.6510 309° West 468 539 29,600 1,075 Climbing FlightAware ADS-B
Fri 02:33:20 PM 35.4902 -85.6715 306° West 469 540 29,700 615 Climbing FlightAware ADS-B
Fri 02:33:50 PM 35.5312 -85.7338 309° West 468 539 30,000 254 Climbing FlightAware ADS-B
Fri 02:34:31 PM 35.5830 -85.8140 308° West 464 534 30,000  Level FlightAware ADS-B
Fri 02:35:19 PM 35.6460 -85.9130 308° West 461 531 30,000  Level FlightAware ADS-B
Fri 02:35:59 PM 35.7010 -85.9980 309° West 460 529 30,000  Level FlightAware ADS-B
Fri 02:36:43 PM 35.7600 -86.0900 308° West 460 529 30,000  Level FlightAware ADS-B
Fri 02:37:25 PM 35.8150 -86.1770 308° West 462 532 30,000  Level FlightAware ADS-B
Fri 02:38:03 PM 35.8660 -86.2560 309° West 464 534 30,000  Level FlightAware ADS-B
Fri 02:38:47 PM 35.9250 -86.3480 308° West 466 536 30,000  Level FlightAware ADS-B
Fri 02:38:58 PM 35.9390 -86.3708 307° West 465 535 30,000  Level FlightAware ADS-B
Fri 02:39:30 PM 35.9822 -86.4379 309° West 467 537 30,000  Level FlightAware ADS-B
Fri 02:40:00 PM 36.0225 -86.5029 307° West 467 537 30,000  Level FlightAware ADS-B
Fri 02:41:02 PM 36.1117 -86.6235 312° West 466 536 30,000  Level FlightAware ADS-B
Fri 02:41:48 PM 36.1780 -86.7140 312° West 466 536 30,000  Level FlightAware ADS-B
Fri 02:42:32 PM 36.2440 -86.8000 314° West 466 536 30,000  Level FlightAware ADS-B
Fri 02:43:14 PM 36.3060 -86.8820 313° West 467 537 30,000  Level FlightAware ADS-B
Fri 02:43:48 PM 36.3420 -86.9300 313° West 467 537 30,000  Level FlightAware ADS-B
Fri 02:44:36 PM 36.4260 -87.0440 313° West 467 537 30,000  Level FlightAware ADS-B
Fri 02:45:18 PM 36.4880 -87.1270 313° West 467 537 30,000  Level FlightAware ADS-B
Fri 02:46:00 PM 36.5490 -87.2100 312° West 469 540 30,000  Level FlightAware ADS-B
Fri 02:46:40 PM 36.6080 -87.2900 313° West 472 543 30,000  Level FlightAware ADS-B
Fri 02:47:26 PM 36.6770 -87.3820 313° West 472 543 30,000  Level FlightAware ADS-B
Fri 02:48:08 PM 36.7390 -87.4660 313° West 473 544 30,000  Level FlightAware ADS-B
Fri 02:48:48 PM 36.7980 -87.5450 313° West 473 544 30,000  Level FlightAware ADS-B
Fri 02:49:44 PM 36.8820 -87.6620 312° West 474 545 30,000  Level FlightAware ADS-B
Fri 02:50:27 PM 36.9360 -87.7360 312° West 474 545 30,000  Level FlightAware ADS-B
Fri 02:51:21 PM 37.0250 -87.8550 313° West 476 548 30,000  Level FlightAware ADS-B
Fri 02:52:13 PM 37.0960 -87.9530 312° West 476 548 30,000  Level FlightAware ADS-B
Fri 02:52:44 PM 37.1480 -88.0270 311° West 477 549 30,000  Level FlightAware ADS-B
Fri 02:53:23 PM 37.2030 -88.1020 313° West 476 548 30,000  Level FlightAware ADS-B
Fri 02:54:11 PM 37.2770 -88.2030 313° West 477 549 30,000  Level FlightAware ADS-B
Fri 02:54:54 PM 37.3390 -88.2910 312° West 476 548 30,000  Level FlightAware ADS-B
Fri 02:55:31 PM 37.3950 -88.3670 313° West 477 549 30,000  Level FlightAware ADS-B
Fri 02:56:19 PM 37.4670 -88.4690 312° West 477 549 30,000  Level FlightAware ADS-B
Fri 02:57:16 PM 37.5450 -88.5800 312° West 478 550 30,000  Level FlightAware ADS-B
Fri 02:57:52 PM 37.5960 -88.6520 312° West 478 550 30,000  Level FlightAware ADS-B
Fri 02:58:32 PM 37.6560 -88.7370 312° West 479 551 30,000  Level FlightAware ADS-B
Fri 02:59:19 PM 37.7140 -88.8210 311° West 479 551 30,000  Level FlightAware ADS-B
Fri 02:59:56 PM 37.7600 -88.8880 311° West 479 551 30,000  Level FlightAware ADS-B
Fri 03:00:39 PM 37.8130 -88.9650 311° West 479 551 30,000  Level FlightAware ADS-B
Fri 03:01:40 PM 37.8890 -89.0750 311° West 479 551 30,000  Level FlightAware ADS-B
Fri 03:02:16 PM 37.9330 -89.1400 311° West 479 551 30,000  Level FlightAware ADS-B
Fri 03:02:55 PM 37.9810 -89.2100 311° West 479 551 30,000  Level FlightAware ADS-B
Fri 03:03:41 PM 38.0380 -89.2930 311° West 479 551 30,000  Level FlightAware ADS-B
Fri 03:04:39 PM 38.1980 -89.5100 313° West 483 556 30,000  Level FlightAware ADS-B
Fri 03:05:33 PM 38.2660 -89.6090 311° West 483 556 30,000  Level FlightAware ADS-B
Fri 03:06:16 PM 38.3460 -89.7240 312° West 481 554 30,000  Level FlightAware ADS-B
Fri 03:06:53 PM 38.3920 -89.7910 311° West 481 554 30,000  Level FlightAware ADS-B
Fri 03:07:43 PM 38.4750 -89.9120 311° West 479 551 30,000  Level FlightAware ADS-B
Fri 03:08:21 PM 38.5250 -89.9840 312° West 478 550 30,000  Level FlightAware ADS-B
Fri 03:09:08 PM 38.5970 -90.0910 311° West 478 550 30,000 279 Level FlightAware ADS-B
Fri 03:09:47 PM 38.6550 -90.1760 311° West 480 552 30,400 725 Climbing FlightAware ADS-B
Fri 03:10:39 PM 38.7260 -90.2820 311° West 479 551 31,100 382 Climbing FlightAware ADS-B
Fri 03:11:37 PM 38.7960 -90.3890 310° West 479 551 31,100 524 Level FlightAware ADS-B
Fri 03:12:22 PM 38.8620 -90.4860 311° West 475 547 32,000 614 Climbing FlightAware ADS-B
Fri 03:13:05 PM 38.9510 -90.5880 318° Northwest 476 548 32,000  Level FlightAware ADS-B
Fri 03:13:45 PM 39.0170 -90.6640 318° Northwest 477 549 32,000  Level FlightAware ADS-B
Fri 03:14:27 PM 39.0860 -90.7440 318° Northwest 479 551 32,000  Level FlightAware ADS-B
Fri 03:15:04 PM 39.1430 -90.8120 317° Northwest 481 554 32,000  Level FlightAware ADS-B
Fri 03:15:53 PM 39.2260 -90.9090 318° Northwest 482 555 32,000  Level FlightAware ADS-B
Fri 03:16:31 PM 39.2820 -90.9770 317° Northwest 481 554 32,000  Level FlightAware ADS-B
Fri 03:17:13 PM 39.3560 -91.0620 318° Northwest 479 551 32,000  Level FlightAware ADS-B
Fri 03:17:55 PM 39.4140 -91.1320 317° Northwest 479 551 32,000  Level FlightAware ADS-B
Fri 03:18:35 PM 39.4690 -91.1990 317° Northwest 479 551 32,000  Level FlightAware ADS-B
Fri 03:19:24 PM 39.5700 -91.3190 318° Northwest 472 543 32,000  Level FlightAware ADS-B
Fri 03:20:03 PM 39.6230 -91.3830 317° Northwest 472 543 32,000  Level FlightAware ADS-B
Fri 03:20:57 PM 39.7090 -91.4860 317° Northwest 474 545 32,000  Level FlightAware ADS-B
Fri 03:21:45 PM 39.7900 -91.5840 317° Northwest 474 545 32,000  Level FlightAware ADS-B
Fri 03:22:38 PM 39.8790 -91.6910 317° Northwest 476 548 32,000  Level FlightAware ADS-B
Fri 03:23:34 PM 39.9690 -91.8010 317° Northwest 476 548 32,000  Level FlightAware ADS-B
Fri 03:24:16 PM 40.0390 -91.8860 317° Northwest 478 550 32,000  Level FlightAware ADS-B
Fri 03:25:21 PM 40.1620 -91.9860 328° Northwest 483 556 32,000  Level FlightAware ADS-B
Fri 03:26:06 PM 40.2460 -92.0520 329° Northwest 483 556 32,000  Level FlightAware ADS-B
Fri 03:26:51 PM 40.3350 -92.1210 329° Northwest 486 559 32,000  Level FlightAware ADS-B
Fri 03:27:35 PM 40.4230 -92.1890 330° Northwest 487 560 32,000  Level FlightAware ADS-B
Fri 03:28:26 PM 40.5200 -92.2630 330° Northwest 487 560 32,000  Level FlightAware ADS-B
Fri 03:29:05 PM 40.5880 -92.3150 330° Northwest 488 562 32,000  Level FlightAware ADS-B
Fri 03:29:51 PM 40.6890 -92.3880 331° Northwest 492 566 32,000  Level FlightAware ADS-B
Fri 03:31:17 PM 40.8460 -92.5480 322° Northwest 492 566 32,000  Level FlightAware ADS-B
Fri 03:31:57 PM 40.9140 -92.6240 320° Northwest 490 564 32,000  Level FlightAware ADS-B
Fri 03:33:05 PM 41.0280 -92.7590 318° Northwest 485 558 32,000  Level FlightAware ADS-B
Fri 03:33:51 PM 41.1070 -92.8490 319° Northwest 486 559 32,000  Level FlightAware ADS-B
Fri 03:34:33 PM 41.1780 -92.9310 319° Northwest 483 556 32,000  Level FlightAware ADS-B
Fri 03:35:09 PM 41.2380 -93.0010 319° Northwest 479 551 32,000  Level FlightAware ADS-B
Fri 03:36:09 PM 41.3380 -93.1180 319° Northwest 479 551 32,000  Level FlightAware ADS-B
Fri 03:36:59 PM 41.4190 -93.2130 319° Northwest 477 549 32,000  Level FlightAware ADS-B
Fri 03:37:39 PM 41.4870 -93.2930 319° Northwest 476 548 32,000  Level FlightAware ADS-B
Fri 03:38:21 PM 41.5550 -93.3720 319° Northwest 475 547 32,000  Level FlightAware ADS-B
Fri 03:39:07 PM 41.6310 -93.4620 319° Northwest 476 548 32,000  Level FlightAware ADS-B
Fri 03:39:47 PM 41.6960 -93.5400 318° Northwest 476 548 32,000  Level FlightAware ADS-B
Fri 03:40:37 PM 41.7800 -93.6400 318° Northwest 478 550 32,000  Level FlightAware ADS-B
Fri 03:41:11 PM 41.8340 -93.7050 318° Northwest 479 551 32,000  Level FlightAware ADS-B
Fri 03:41:59 PM 41.9170 -93.8050 318° Northwest 480 552 32,000  Level FlightAware ADS-B
Fri 03:42:41 PM 41.9960 -93.8700 329° Northwest 493 567 32,000  Level FlightAware ADS-B
Fri 03:43:23 PM 42.0830 -93.9240 335° Northwest 490 564 32,000  Level FlightAware ADS-B
Fri 03:44:07 PM 42.1680 -93.9780 335° Northwest 488 562 32,000  Level FlightAware ADS-B
Fri 03:45:00 PM 42.2540 -94.0320 335° Northwest 488 562 32,000  Level FlightAware ADS-B
Fri 03:45:43 PM 42.3710 -94.1030 336° Northwest 492 566 32,000  Level FlightAware ADS-B
Fri 03:46:26 PM 42.4490 -94.1510 336° Northwest 493 567 32,000  Level FlightAware ADS-B
Fri 03:47:07 PM 42.5440 -94.2070 337° Northwest 495 570 32,000  Level FlightAware ADS-B
Fri 03:47:51 PM 42.6370 -94.2650 335° Northwest 492 566 32,000  Level FlightAware ADS-B
Fri 03:48:33 PM 42.7230 -94.3180 336° Northwest 493 567 32,000  Level FlightAware ADS-B
Fri 03:49:12 PM 42.8050 -94.3640 338° Northwest 494 568 32,000  Level FlightAware ADS-B
Fri 03:49:52 PM 42.8890 -94.4080 339° North 495 570 32,000  Level FlightAware ADS-B
Fri 03:50:59 PM 43.0360 -94.4840 339° North 496 571 32,000  Level FlightAware ADS-B
Fri 03:51:45 PM 43.1330 -94.5340 339° North 495 570 32,000  Level FlightAware ADS-B
Fri 03:52:23 PM 43.2160 -94.5780 339° North 493 567 32,000  Level FlightAware ADS-B
Fri 03:53:07 PM 43.3100 -94.6260 340° North 491 565 32,000  Level FlightAware ADS-B
Fri 03:53:49 PM 43.3990 -94.6720 339° North 490 564 32,000  Level FlightAware ADS-B
Fri 03:54:31 PM 43.4880 -94.7230 337° Northwest 484 557 32,000  Level FlightAware ADS-B
Fri 03:55:22 PM 43.5670 -94.7870 330° Northwest 476 548 32,000  Level FlightAware ADS-B
Fri 03:56:11 PM 43.6700 -94.8890 324° Northwest 472 543 32,000  Level FlightAware ADS-B
Fri 03:56:53 PM 43.7370 -94.9710 319° Northwest 464 534 32,000  Level FlightAware ADS-B
Fri 03:57:29 PM 43.7950 -95.0450 317° Northwest 465 535 32,000  Level FlightAware ADS-B
Fri 03:58:11 PM 43.8520 -95.1180 317° Northwest 467 537 32,000  Level FlightAware ADS-B
Fri 03:58:57 PM 43.9240 -95.2050 319° Northwest 469 540 32,000  Level FlightAware ADS-B
Fri 03:59:37 PM 44.0020 -95.3010 318° Northwest 470 541 32,000  Level FlightAware ADS-B
Fri 04:00:23 PM 44.0770 -95.3940 318° Northwest 471 542 32,000  Level FlightAware ADS-B
Fri 04:01:03 PM 44.1420 -95.4740 319° Northwest 470 541 32,000  Level FlightAware ADS-B
Fri 04:01:45 PM 44.2110 -95.5590 319° Northwest 470 541 32,000  Level FlightAware ADS-B
Fri 04:02:29 PM 44.2800 -95.6470 318° Northwest 470 541 32,000  Level FlightAware ADS-B
Fri 04:03:09 PM 44.3460 -95.7300 318° Northwest 468 539 32,000  Level FlightAware ADS-B
Fri 04:03:51 PM 44.4130 -95.8160 317° Northwest 468 539 32,000  Level FlightAware ADS-B
Fri 04:04:35 PM 44.4820 -95.9060 317° Northwest 469 540 32,000  Level FlightAware ADS-B
Fri 04:05:31 PM 44.5740 -96.0220 318° Northwest 474 545 32,000  Level FlightAware ADS-B
Fri 04:06:07 PM 44.6310 -96.0970 317° Northwest 476 548 32,000  Level FlightAware ADS-B
Fri 04:06:53 PM 44.6950 -96.1820 317° Northwest 479 551 32,000  Level FlightAware ADS-B
Fri 04:07:29 PM 44.7640 -96.2710 318° Northwest 481 554 32,000  Level FlightAware ADS-B
Fri 04:08:43 PM 44.8850 -96.4290 317° Northwest 483 556 32,000  Level FlightAware ADS-B
Fri 04:09:29 PM 44.9610 -96.5290 317° Northwest 486 559 32,000  Level FlightAware ADS-B
Fri 04:10:07 PM 45.0220 -96.6090 317° Northwest 486 559 32,000  Level FlightAware ADS-B
Fri 04:10:47 PM 45.0890 -96.6980 317° Northwest 487 560 32,000  Level FlightAware ADS-B
Fri 04:11:40 PM 45.1440 -96.7720 317° Northwest 487 560 32,000  Level FlightAware ADS-B
Fri 04:12:17 PM 45.2360 -96.8950 317° Northwest 485 558 32,000  Level FlightAware ADS-B
Fri 04:13:01 PM 45.3080 -96.9910 317° Northwest 483 556 32,000  Level FlightAware ADS-B
Fri 04:13:45 PM 45.3790 -97.0860 317° Northwest 480 552 32,000  Level FlightAware ADS-B
Fri 04:14:29 PM 45.4430 -97.1710 317° Northwest 478 550 32,000  Level FlightAware ADS-B
Fri 04:15:09 PM 45.5140 -97.2680 316° Northwest 476 548 32,000  Level FlightAware ADS-B
Fri 04:15:51 PM 45.5790 -97.3560 317° Northwest 473 544 32,000  Level FlightAware ADS-B
Fri 04:16:31 PM 45.6440 -97.4450 316° Northwest 473 544 32,000  Level FlightAware ADS-B
Fri 04:17:13 PM 45.7110 -97.5360 317° Northwest 471 542 32,000  Level FlightAware ADS-B
Fri 04:18:09 PM 45.7990 -97.6560 316° Northwest 470 541 32,000  Level FlightAware ADS-B
Fri 04:18:49 PM 45.8600 -97.7430 315° West 471 542 32,000  Level FlightAware ADS-B
Fri 04:19:33 PM 45.9300 -97.8390 316° Northwest 473 544 32,000  Level FlightAware ADS-B
Fri 04:20:20 PM 45.9940 -97.9300 315° West 473 544 32,000  Level FlightAware ADS-B
Fri 04:21:01 PM 46.0480 -98.0070 315° West 473 544 32,000  Level FlightAware ADS-B
Fri 04:21:36 PM 46.1230 -98.1060 318° Northwest 472 543 32,000  Level FlightAware ADS-B
Fri 04:22:24 PM 46.1900 -98.2020 315° West 472 543 32,000  Level FlightAware ADS-B
Fri 04:23:02 PM 46.2400 -98.2750 315° West 472 543 32,000  Level FlightAware ADS-B
Fri 04:23:50 PM 46.3030 -98.3660 315° West 472 543 32,000  Level FlightAware ADS-B
Fri 04:24:24 PM 46.3480 -98.4300 316° Northwest 472 543 32,000  Level FlightAware ADS-B
Fri 04:25:04 PM 46.4000 -98.5060 315° West 472 543 32,000  Level FlightAware ADS-B
Fri 04:25:49 PM 46.4600 -98.5920 315° West 472 543 32,000  Level FlightAware ADS-B
Fri 04:26:27 PM 46.5090 -98.6650 314° West 472 543 32,000  Level FlightAware ADS-B
Fri 04:27:16 PM 46.5740 -98.7580 315° West 472 543 32,000  Level FlightAware ADS-B
Fri 04:27:55 PM 46.6250 -98.8330 315° West 472 543 32,000  Level FlightAware ADS-B
Fri 04:28:41 PM 46.6850 -98.9210 315° West 472 543 32,000  Level FlightAware ADS-B
Fri 04:29:21 PM 46.7380 -98.9970 316° Northwest 472 543 32,000  Level FlightAware ADS-B
Fri 04:30:08 PM 46.7990 -99.0870 315° West 472 543 32,000  Level FlightAware ADS-B
Fri 04:30:43 PM 46.8450 -99.1540 315° West 472 543 32,000  Level FlightAware ADS-B
Fri 04:31:45 PM 46.9270 -99.2740 315° West 472 543 32,000  Level FlightAware ADS-B
Fri 04:32:47 PM 47.1581 -99.5972 315° West 483 556 32,000  Level Minneapolis Center
Fri 04:33:49 PM 47.2517 -99.7378 314° West 482 555 32,000  Level Minneapolis Center
Fri 04:34:51 PM 47.3461 -99.8792 315° West 483 556 32,000  Level Minneapolis Center
Fri 04:40:08 PM 47.8650 -100.6670 315° West 489 563 32,000  Level FlightAware ADS-B
Fri 04:40:48 PM 47.9250 -100.7620 313° West 488 562 32,000  Level FlightAware ADS-B
Fri 04:41:32 PM 47.9960 -100.8710 314° West 485 558 32,000  Level FlightAware ADS-B
Fri 04:42:11 PM 48.0510 -100.9570 314° West 485 558 32,000  Level FlightAware ADS-B
Fri 04:42:48 PM 48.0990 -101.0340 313° West 485 558 32,000  Level FlightAware ADS-B
Fri 04:43:38 PM 48.1640 -101.1390 313° West 485 558 32,000  Level FlightAware ADS-B
Fri 04:44:15 PM 48.2120 -101.2160 313° West 485 558 32,000  Level FlightAware ADS-B
Fri 04:44:53 PM 48.2610 -101.2960 313° West 485 558 32,000  Level FlightAware ADS-B
Fri 04:45:41 PM 48.3240 -101.3960 313° West 485 558 32,000  Level FlightAware ADS-B
Fri 04:46:17 PM 48.3710 -101.4720 313° West 485 558 32,000  Level FlightAware ADS-B
Fri 04:47:09 PM 48.4380 -101.5810 313° West 485 558 32,000  Level FlightAware ADS-B
Fri 04:47:46 PM 48.4860 -101.6590 313° West 485 558 32,000  Level FlightAware ADS-B
Fri 04:48:19 PM 48.6489 -101.8356 313° West 502 578 32,000  Level Minneapolis Center
Fri 04:49:21 PM 48.7486 -101.9792 317° Northwest 502 578 32,000  Level Minneapolis Center
Fri 04:55:05 PM 49.3190 -102.8460 317° Northwest 503 579 32,000  Level FlightAware ADS-B
Fri 04:55:40 PM 49.3630 -102.9290 309° West 503 579 32,000  Level FlightAware ADS-B
Fri 04:56:26 PM 49.4200 -103.0370 309° West 503 579 32,000  Level FlightAware ADS-B
Fri 04:57:05 PM 49.4680 -103.1290 309° West 503 579 32,000  Level FlightAware ADS-B
Fri 04:57:54 PM 49.5290 -103.2450 309° West 503 579 32,000  Level FlightAware ADS-B
Fri 04:58:31 PM 49.5750 -103.3330 309° West 503 579 32,000  Level FlightAware ADS-B
Fri 04:59:17 PM 49.6330 -103.4420 309° West 503 579 32,000  Level FlightAware ADS-B
Fri 04:59:53 PM 49.6770 -103.5280 308° West 503 579 32,000  Level FlightAware ADS-B
Fri 05:00:32 PM 49.7260 -103.6200 310° West 503 579 32,000  Level FlightAware ADS-B
Fri 05:01:37 PM 49.8070 -103.7750 309° West 503 579 32,000  Level FlightAware ADS-B
Fri 05:02:12 PM 49.8940 -104.0570 296° West 506 582 32,000  Level FlightAware ADS-B
Fri 05:02:54 PM 49.9510 -104.1810 306° West 510 587 32,000  Level FlightAware ADS-B
Fri 05:03:39 PM 50.0150 -104.3180 306° West 512 589 32,000  Level FlightAware ADS-B
Fri 05:04:22 PM 50.0780 -104.4590 305° West 514 592 32,000  Level FlightAware ADS-B
Fri 05:05:00 PM 50.1290 -104.5710 305° West 514 592 32,000  Level FlightAware ADS-B
Fri 05:05:46 PM 50.1830 -104.6860 306° West 515 593 32,000  Level FlightAware ADS-B
Fri 05:06:23 PM 50.2360 -104.8050 305° West 516 594 32,000  Level FlightAware ADS-B
Fri 05:07:26 PM 50.3260 -105.0060 305° West 516 594 32,000  Level FlightAware ADS-B
Fri 05:08:07 PM 50.3760 -105.1160 306° West 517 595 32,000  Level FlightAware ADS-B
Fri 05:08:47 PM 50.4360 -105.2520 305° West 518 596 32,000  Level FlightAware ADS-B
Fri 05:09:39 PM 50.5080 -105.4150 305° West 517 595 32,000  Level FlightAware ADS-B
Fri 05:10:41 PM 50.5830 -105.5860 305° West 517 595 32,000  Level FlightAware ADS-B
Fri 05:11:22 PM 50.6400 -105.7120 306° West 518 596 32,000  Level FlightAware ADS-B
Fri 05:12:04 PM 50.6940 -105.8360 305° West 520 598 32,000  Level FlightAware ADS-B
Fri 05:12:50 PM 50.7710 -106.0140 304° West 519 597 32,000  Level FlightAware ADS-B
Fri 05:13:31 PM 50.8210 -106.1300 304° West 520 598 32,000  Level FlightAware ADS-B
Fri 05:14:11 PM 50.8760 -106.2560 305° West 521 600 32,000  Level FlightAware ADS-B
Fri 05:14:51 PM 50.9330 -106.3910 304° West 521 600 32,000  Level FlightAware ADS-B
Fri 05:16:01 PM 50.9980 -106.5430 304° West 520 598 32,000  Level FlightAware ADS-B
Fri 05:16:43 PM 51.0460 -106.6560 304° West 520 598 32,000  Level FlightAware ADS-B
Fri 05:17:21 PM 51.0900 -106.7590 304° West 520 598 32,000  Level FlightAware ADS-B
Fri 05:18:12 PM 51.1480 -106.8970 304° West 520 598 32,000  Level FlightAware ADS-B
Fri 05:18:46 PM 51.1870 -106.9880 304° West 520 598 32,000  Level FlightAware ADS-B
Fri 05:19:34 PM 51.2420 -107.1180 304° West 520 598 32,000  Level FlightAware ADS-B
Fri 05:20:10 PM 51.2830 -107.2160 304° West 520 598 32,000  Level FlightAware ADS-B
Fri 05:20:53 PM 51.3320 -107.3330 304° West 520 598 32,000  Level FlightAware ADS-B
Fri 05:21:41 PM 51.3870 -107.4630 304° West 520 598 32,000  Level FlightAware ADS-B
Fri 05:22:17 PM 51.4280 -107.5610 304° West 520 598 32,000  Level FlightAware ADS-B
Fri 05:23:07 PM 51.4850 -107.6970 304° West 520 598 32,000  Level FlightAware ADS-B
Fri 05:23:41 PM 51.5240 -107.7890 304° West 520 598 32,000  Level FlightAware ADS-B
Fri 05:24:31 PM 51.5810 -107.9260 304° West 520 598 32,000  Level FlightAware ADS-B
Fri 05:25:08 PM 51.6240 -108.0270 304° West 520 598 32,000  Level FlightAware ADS-B
Fri 05:25:44 PM 51.6650 -108.1250 304° West 520 598 32,000  Level FlightAware ADS-B
Fri 05:26:51 PM 51.7333 -108.9000 304° West 530 610 32,000  Level Winnipeg Center
Fri 05:27:51 PM 51.8000 -109.0833 301° West 530 610 32,000  Level Winnipeg Center
Fri 05:34:00 PM 52.3180 -110.2970 301° West 539 620 32,000  Level FlightAware ADS-B
Fri 05:34:39 PM 52.3750 -110.4410 303° West 537 618 32,000  Level FlightAware ADS-B
Fri 05:35:19 PM 52.4260 -110.5740 302° West 536 617 32,000  Level FlightAware ADS-B
Fri 05:35:49 PM 52.4580 -110.6570 302° West 536 617 32,000  Level FlightAware ADS-B
Fri 05:36:44 PM 52.5380 -110.8680 302° West 537 618 32,000 300 Level FlightAware ADS-B
Fri 05:37:29 PM 52.5990 -111.0300 302° West 538 619 32,500 847 Climbing FlightAware ADS-B
Fri 05:38:09 PM 52.6510 -111.1690 302° West 536 617 33,200 1,059 Climbing FlightAware ADS-B
Fri 05:38:54 PM 52.7040 -111.3100 302° West 529 609 34,000 565 Climbing FlightAware ADS-B
Fri 05:39:34 PM 52.7590 -111.4580 302° West 528 608 34,000  Level FlightAware ADS-B
Fri 05:40:49 PM 52.8480 -111.6970 302° West 521 600 34,000  Level FlightAware ADS-B
Fri 05:41:24 PM 52.8940 -111.8230 301° West 520 598 34,000  Level FlightAware ADS-B
Fri 05:42:09 PM 52.9530 -111.9860 301° West 516 594 34,000  Level FlightAware ADS-B
Fri 05:43:04 PM 53.0180 -112.1650 301° West 514 592 34,000  Level FlightAware ADS-B
Fri 05:43:49 PM 53.0750 -112.3250 301° West 514 592 34,000  Level FlightAware ADS-B
Fri 05:44:29 PM 53.1210 -112.4540 301° West 516 594 34,000  Level FlightAware ADS-B
Fri 05:45:09 PM 53.1730 -112.6010 301° West 519 597 34,000  Level FlightAware ADS-B
Fri 05:45:54 PM 53.2030 -112.6840 301° West 522 601 34,000  Level FlightAware ADS-B
Fri 05:46:39 PM 53.2830 -112.9100 301° West 523 602 34,000  Level FlightAware ADS-B
Fri 05:47:20 PM 53.3240 -113.0290 300° West 523 602 34,000  Level FlightAware ADS-B
Fri 05:48:01 PM 53.3830 -113.2000 300° West 524 603 34,000  Level FlightAware ADS-B
Fri 05:48:45 PM 53.4370 -113.3550 300° West 522 601 34,000  Level FlightAware ADS-B
Fri 05:49:27 PM 53.4870 -113.5020 300° West 520 598 34,000  Level FlightAware ADS-B
Fri 05:50:03 PM 53.5290 -113.6240 300° West 519 597 34,000  Level FlightAware ADS-B
Fri 05:50:45 PM 53.5780 -113.7680 300° West 519 597 34,000  Level FlightAware ADS-B
Fri 05:51:29 PM 53.6310 -113.9260 300° West 519 597 34,000  Level FlightAware ADS-B
Fri 05:52:09 PM 53.6750 -114.0560 300° West 519 597 34,000  Level FlightAware ADS-B
Fri 05:52:54 PM 53.7300 -114.2250 299° West 517 595 34,000  Level FlightAware ADS-B
Fri 05:53:39 PM 53.7820 -114.3800 300° West 516 594 34,000  Level FlightAware ADS-B
Fri 05:54:14 PM 53.8230 -114.5070 299° West 516 594 34,000  Level FlightAware ADS-B
Fri 05:54:59 PM 53.8730 -114.6580 299° West 515 593 34,000  Level FlightAware ADS-B
Fri 05:55:55 PM 53.9200 -114.8070 298° West 515 593 34,000  Level FlightAware ADS-B
Fri 05:57:04 PM 54.0150 -115.0960 299° West 513 590 34,000  Level FlightAware ADS-B
Fri 05:57:53 PM 54.0610 -115.2450 298° West 513 590 34,000  Level FlightAware ADS-B
Fri 05:58:33 PM 54.1090 -115.3940 299° West 513 590 34,000  Level FlightAware ADS-B
Fri 05:59:25 PM 54.1680 -115.5830 298° West 506 582 34,000  Level FlightAware ADS-B
Fri 06:00:39 PM 54.2470 -115.8360 298° West 506 582 34,000  Level FlightAware ADS-B
Fri 06:01:17 PM 54.2820 -115.9500 298° West 506 582 34,000  Level FlightAware ADS-B
Fri 06:01:55 PM 54.3180 -116.0650 298° West 506 582 34,000  Level FlightAware ADS-B
Fri 06:02:42 PM 54.3620 -116.2060 298° West 506 582 34,000  Level FlightAware ADS-B
Fri 06:03:30 PM 54.4070 -116.3510 298° West 506 582 34,000  Level FlightAware ADS-B
Fri 06:04:08 PM 54.4420 -116.4660 298° West 506 582 34,000  Level FlightAware ADS-B
Fri 06:04:46 PM 54.4780 -116.5810 298° West 506 582 34,000  Level FlightAware ADS-B
Fri 06:05:26 PM 54.5150 -116.7020 298° West 506 582 34,000  Level FlightAware ADS-B
Fri 06:06:15 PM 54.5610 -116.8500 298° West 506 582 34,000  Level FlightAware ADS-B
Fri 06:07:01 PM 54.6040 -116.9900 298° West 506 582 34,000  Level FlightAware ADS-B
Fri 06:07:38 PM 54.6380 -117.1020 298° West 506 582 34,000  Level FlightAware ADS-B
Fri 06:08:24 PM 54.6810 -117.2420 298° West 506 582 34,000  Level FlightAware ADS-B
Fri 06:09:00 PM 54.7150 -117.3510 298° West 506 582 34,000  Level FlightAware ADS-B
Fri 06:09:43 PM 54.9333 -117.6667 298° West 490 564 34,000  Level Edmonton Center
Fri 06:10:43 PM 55.0167 -117.8833 304° West 490 564 34,000  Level Edmonton Center
Fri 06:11:43 PM 55.1000 -118.0500 311° West 490 564 34,000  Level Edmonton Center
Fri 06:12:43 PM 55.2000 -118.2333 314° West 490 564 34,000  Level Edmonton Center
Fri 06:13:43 PM 55.2833 -118.4167 309° West 490 564 34,000  Level Edmonton Center
Fri 06:14:43 PM 55.3667 -118.6333 304° West 490 564 34,000  Level Edmonton Center
Fri 06:15:43 PM 55.4500 -118.8167 309° West 490 564 34,000  Level Edmonton Center
Fri 06:16:43 PM 55.5000 -119.0500 291° West 490 564 34,000  Level Edmonton Center
Fri 06:17:43 PM 55.5667 -119.2500 301° West 490 564 34,000  Level Edmonton Center
Fri 06:18:43 PM 55.6333 -119.4500 301° West 490 564 34,000  Level Edmonton Center
Fri 06:19:43 PM 55.7000 -119.6667 299° West 490 564 34,000  Level Edmonton Center
Fri 06:20:43 PM 55.7500 -119.8667 294° West 490 564 34,000  Level Edmonton Center
Fri 06:21:43 PM 55.8167 -120.1167 295° West 490 564 34,000  Level Edmonton Center
Fri 06:22:43 PM 55.8667 -120.3500 291° West 490 564 34,000  Level Edmonton Center
Fri 06:23:43 PM 55.9333 -120.5667 299° West 490 564 34,000  Level Edmonton Center
Fri 06:24:43 PM 55.9833 -120.7667 294° West 490 564 34,000  Level Edmonton Center
Fri 06:25:43 PM 56.0333 -121.0167 290° West 490 564 34,000  Level Edmonton Center
Fri 06:26:43 PM 56.0833 -121.2167 294° West 490 564 34,000  Level Edmonton Center
Fri 06:27:43 PM 56.1500 -121.4667 296° West 490 564 34,000  Level Edmonton Center
Fri 06:33:52 PM 56.4680 -122.8300 296° West 499 574 34,000  Level FlightAware ADS-B
Fri 06:34:30 PM 56.4940 -122.9570 290° West 499 574 34,000  Level FlightAware ADS-B
Fri 06:35:14 PM 56.5300 -123.1300 291° West 496 571 34,000  Level FlightAware ADS-B
Fri 06:36:16 PM 56.5710 -123.3360 290° West 496 571 34,000  Level FlightAware ADS-B
Fri 06:36:52 PM 56.5950 -123.4560 290° West 496 571 34,000  Level FlightAware ADS-B
Fri 06:37:40 PM 56.6270 -123.6160 290° West 496 571 34,000  Level FlightAware ADS-B
Fri 06:38:16 PM 56.6510 -123.7360 290° West 496 571 34,000  Level FlightAware ADS-B
Fri 06:39:04 PM 56.6830 -123.8960 290° West 496 571 34,000  Level FlightAware ADS-B
Fri 06:39:41 PM 56.7080 -124.0200 290° West 496 571 34,000  Level FlightAware ADS-B
Fri 06:40:05 PM 56.7240 -124.1000 290° West 496 571 34,000  Level FlightAware ADS-B
Fri 06:40:48 PM 56.7520 -124.2440 290° West 496 571 34,000  Level FlightAware ADS-B
Fri 06:41:35 PM 56.7840 -124.4010 290° West 496 571 34,000  Level FlightAware ADS-B
Fri 06:42:11 PM 56.8080 -124.5210 290° West 496 571 34,000  Level FlightAware ADS-B
Fri 06:42:58 PM 56.8390 -124.6790 290° West 496 571 34,000  Level FlightAware ADS-B
Fri 06:43:34 PM 56.8630 -124.7990 290° West 496 571 34,000  Level FlightAware ADS-B
Fri 06:44:22 PM 56.8950 -124.9600 290° West 496 571 34,000  Level FlightAware ADS-B
Fri 06:44:43 PM 56.9667 -125.4333 290° West 490 564 34,000  Level Edmonton Center
Fri 06:46:00 PM 57.0616 -125.6842 305° West  Level FlightAware Approximate
Fri 06:53:00 PM 57.4971 -127.1545 293° West  Level FlightAware Approximate
Fri 06:54:00 PM 57.5457 -127.3783 292° West  Level FlightAware Approximate
Fri 06:55:00 PM 57.5938 -127.6028 292° West  Level FlightAware Approximate
Fri 06:56:00 PM 57.6416 -127.8278 292° West  Level FlightAware Approximate
Fri 06:57:00 PM 57.6889 -128.0534 292° West  Level FlightAware Approximate
Fri 06:58:00 PM 57.7359 -128.2796 291° West  Level FlightAware Approximate
Fri 06:59:00 PM 57.7824 -128.5064 291° West  Level FlightAware Approximate
Fri 07:00:00 PM 57.8286 -128.7338 291° West  Level FlightAware Approximate
Fri 07:01:00 PM 57.8743 -128.9617 291° West  Level FlightAware Approximate
Fri 07:02:00 PM 57.9196 -129.1902 291° West  Level FlightAware Approximate
Fri 07:03:00 PM 57.9645 -129.4194 290° West  Level FlightAware Approximate
Fri 07:04:00 PM 58.0090 -129.6490 290° West  Level FlightAware Approximate
Fri 07:05:00 PM 58.0531 -129.8793 290° West  Level FlightAware Approximate
Fri 07:06:00 PM 58.0968 -130.1101 290° West  Level FlightAware Approximate
Fri 07:07:00 PM 58.1400 -130.3414 290° West  Level FlightAware Approximate
Fri 07:08:00 PM 58.1829 -130.5734 289° West  Level FlightAware Approximate
Fri 07:09:00 PM 58.2253 -130.8059 289° West  Level FlightAware Approximate
Fri 07:10:00 PM 58.2673 -131.0389 289° West  Level FlightAware Approximate
Fri 07:11:00 PM 58.3088 -131.2725 289° West  Level FlightAware Approximate
Fri 07:12:00 PM 58.3500 -131.5066 289° West  Level FlightAware Approximate
Fri 07:13:00 PM 58.3907 -131.7413 288° West  Level FlightAware Approximate
Fri 07:14:00 PM 58.4310 -131.9765 288° West  Level FlightAware Approximate
Fri 07:15:00 PM 58.4708 -132.2123 288° West  Level FlightAware Approximate
Fri 07:16:00 PM 58.5102 -132.4486 288° West  Level FlightAware Approximate
Fri 07:17:00 PM 58.5492 -132.6854 288° West  Level FlightAware Approximate
Fri 07:18:00 PM 58.5877 -132.9227 287° West  Level FlightAware Approximate
Fri 07:18:37 PM 58.6333 -133.4000 286° West 490 564 34,000  Level Anchorage Center
Fri 07:19:00 PM 58.6258 -133.1606 287° West  Level FlightAware Approximate
Fri 07:19:37 PM 58.6833 -133.6333 292° West 480 552 34,000  Level Anchorage Center
Fri 07:20:00 PM 58.6635 -133.3990 287° West  Level FlightAware Approximate
Fri 07:20:37 PM 58.7167 -133.8833 285° West 480 552 34,000  Level Anchorage Center
Fri 07:21:00 PM 58.7007 -133.6379 287° West  Level FlightAware Approximate
Fri 07:21:38 PM 58.7667 -134.1333 291° West 480 552 34,000  Level Anchorage Center
Fri 07:22:00 PM 58.7373 -133.8774 286° West  Level FlightAware Approximate
Fri 07:22:38 PM 58.8000 -134.3667 286° West 480 552 34,000  Level Anchorage Center
Fri 07:23:00 PM 58.7718 -134.1183 286° West  Level FlightAware Approximate
Fri 07:23:38 PM 58.8333 -134.6167 285° West 480 552 34,000  Level Anchorage Center
Fri 07:24:00 PM 58.8070 -134.3591 286° West  Level FlightAware Approximate
Fri 07:24:39 PM 58.8833 -134.8833 290° West 490 564 34,000  Level Anchorage Center
Fri 07:25:39 PM 58.9167 -135.1333 285° West 490 564 34,000  Level Anchorage Center
Fri 07:26:39 PM 58.9500 -135.3833 285° West 490 564 34,000  Level Anchorage Center
Fri 07:27:40 PM 58.9833 -135.6167 286° West 480 552 34,000  Level Anchorage Center
Fri 07:28:40 PM 59.0167 -135.8667 285° West 490 564 34,000  Level Anchorage Center
Fri 07:29:40 PM 59.0667 -136.1167 291° West 480 552 34,000  Level Anchorage Center
Fri 07:30:41 PM 59.1000 -136.3667 285° West 480 552 34,000  Level Anchorage Center
Fri 07:31:41 PM 59.1333 -136.6333 284° West 490 564 34,000  Level Anchorage Center
Fri 07:32:41 PM 59.1667 -136.8833 285° West 490 564 34,000  Level Anchorage Center
Fri 07:33:42 PM 59.2000 -137.1500 284° West 480 552 34,000  Level Anchorage Center
Fri 07:34:42 PM 59.2333 -137.4000 285° West 490 564 34,000  Level Anchorage Center
Fri 07:35:42 PM 59.2667 -137.6500 285° West 480 552 34,000  Level Anchorage Center
Fri 07:36:43 PM 59.3000 -137.9167 284° West 490 564 34,000  Level Anchorage Center
Fri 07:37:43 PM 59.3333 -138.1667 285° West 490 564 34,000  Level Anchorage Center
Fri 07:38:43 PM 59.3667 -138.4333 284° West 490 564 34,000  Level Anchorage Center
Fri 07:39:43 PM 59.4000 -138.6833 285° West 490 564 34,000  Level Anchorage Center
Fri 07:40:44 PM 59.4167 -138.9500 277° West 490 564 34,000  Level Anchorage Center
Fri 07:41:44 PM 59.4500 -139.2167 284° West 490 564 34,000  Level Anchorage Center
Fri 07:42:44 PM 59.4833 -139.4833 284° West 490 564 34,000  Level Anchorage Center
Fri 07:43:45 PM 59.5167 -139.7667 283° West 490 564 34,000  Level Anchorage Center
Fri 07:44:45 PM 59.5667 -140.0333 290° West 490 564 34,000  Level Anchorage Center
Fri 07:45:45 PM 59.6167 -140.2833 292° West 490 564 34,000  Level Anchorage Center
Fri 07:46:46 PM 59.6500 -140.5500 284° West 490 564 34,000  Level Anchorage Center
Fri 07:47:46 PM 59.7000 -140.8000 292° West 490 564 34,000  Level Anchorage Center
Fri 07:48:46 PM 59.7333 -141.0667 284° West 500 575 34,000  Level Anchorage Center
Fri 07:49:47 PM 59.7833 -141.3333 291° West 490 564 34,000  Level Anchorage Center
Fri 07:50:47 PM 59.8167 -141.6000 284° West 510 587 34,000  Level Anchorage Center
Fri 07:51:47 PM 59.8667 -141.8667 291° West 500 575 34,000  Level Anchorage Center
Fri 07:52:48 PM 59.9000 -142.1333 284° West 500 575 34,000  Level Anchorage Center
Fri 07:53:48 PM 59.9333 -142.4000 284° West 500 575 34,000  Level Anchorage Center
Fri 07:54:48 PM 59.9833 -142.6667 291° West 490 564 34,000  Level Anchorage Center
Fri 07:55:49 PM 60.0167 -142.9333 284° West 500 575 34,000  Level Anchorage Center
Fri 07:56:49 PM 60.0500 -143.2167 283° West 510 587 34,000  Level Anchorage Center
Fri 07:57:49 PM 60.0833 -143.4833 284° West 510 587 34,000  Level Anchorage Center
Fri 07:58:49 PM 60.1333 -143.7667 290° West 520 598 34,000  Level Anchorage Center
Fri 07:59:50 PM 60.1667 -144.0333 284° West 510 587 34,000  Level Anchorage Center
Fri 08:00:50 PM 60.2000 -144.3167 283° West 510 587 34,000  Level Anchorage Center
Fri 08:01:50 PM 60.2333 -144.6000 283° West 510 587 34,000  Level Anchorage Center
Fri 08:02:51 PM 60.2667 -144.8667 284° West 510 587 34,000  Level Anchorage Center
Fri 08:03:51 PM 60.3000 -145.1500 283° West 500 575 34,000  Level Anchorage Center
Fri 08:04:51 PM 60.3500 -145.4667 288° West 500 575 34,000  Level Anchorage Center
Fri 08:05:52 PM 60.3833 -145.7500 284° West 510 587 34,000  Level Anchorage Center
Fri 08:06:52 PM 60.4167 -146.0333 284° West 510 587 34,000  Level Anchorage Center
Fri 08:12:02 PM 60.5020 -147.4700 284° West 482 555 34,000  Level FlightAware ADS-B
Fri 08:12:48 PM 60.5060 -147.6730 272° West 481 554 34,000  Level FlightAware ADS-B
Fri 08:13:30 PM 60.5090 -147.8700 272° West 479 551 34,000  Level FlightAware ADS-B
Fri 08:14:05 PM 60.5110 -148.0180 272° West 476 548 34,000  Level FlightAware ADS-B
Fri 08:14:53 PM 60.5140 -148.2350 272° West 473 544 34,000  Level FlightAware ADS-B
Fri 08:15:33 PM 60.5160 -148.4120 271° West 471 542 34,000  Level FlightAware ADS-B
Fri 08:16:17 PM 60.5180 -148.6050 271° West 467 537 34,000  Level FlightAware ADS-B
Fri 08:16:57 PM 60.5200 -148.7750 271° West 465 535 34,000  Level FlightAware ADS-B
Fri 08:17:35 PM 60.5220 -148.9440 271° West 463 533 34,000  Level FlightAware ADS-B
Fri 08:18:23 PM 60.5230 -149.1520 271° West 462 532 34,000  Level FlightAware ADS-B
Fri 08:19:03 PM 60.5240 -149.3250 271° West 462 532 34,000  Level FlightAware ADS-B
Fri 08:19:48 PM 60.5250 -149.5200 271° West 463 533 34,000  Level FlightAware ADS-B
Fri 08:20:53 PM 60.5260 -149.7890 271° West 464 534 34,000  Level FlightAware ADS-B
Fri 08:21:37 PM 60.5260 -149.9880 270° West 464 534 34,000  Level FlightAware ADS-B
Fri 08:22:12 PM 60.5260 -150.1320 270° West 464 534 34,000  Level FlightAware ADS-B
Fri 08:22:56 PM 60.5260 -150.3270 270° West 464 534 34,000  Level FlightAware ADS-B
Fri 08:23:45 PM 60.5260 -150.5450 270° West 465 535 34,000  Level FlightAware ADS-B
Fri 08:24:27 PM 60.5250 -150.7280 269° West 466 536 34,000  Level FlightAware ADS-B
Fri 08:25:04 PM 60.5240 -150.8890 269° West 466 536 34,000  Level FlightAware ADS-B
Fri 08:25:42 PM 60.5240 -150.9190 270° West 467 537 34,000  Level FlightAware ADS-B
Fri 08:26:31 PM 60.5210 -151.2740 269° West 467 537 34,000  Level FlightAware ADS-B
Fri 08:27:09 PM 60.5200 -151.4350 269° West 467 537 34,000  Level FlightAware ADS-B
Fri 08:27:57 PM 60.5170 -151.6480 268° West 465 535 34,000  Level FlightAware ADS-B
Fri 08:28:38 PM 60.5150 -151.8260 269° West 463 533 34,000  Level FlightAware ADS-B
Fri 08:29:14 PM 60.5130 -151.9740 268° West 463 533 34,000  Level FlightAware ADS-B
Fri 08:30:17 PM 60.5090 -152.2520 268° West 464 534 34,000  Level FlightAware ADS-B
Fri 08:30:58 PM 60.5060 -152.4300 268° West 464 534 34,000  Level FlightAware ADS-B
Fri 08:31:40 PM 60.5030 -152.6120 268° West 463 533 34,000  Level FlightAware ADS-B
Fri 08:32:23 PM 60.4990 -152.8020 268° West 462 532 34,000  Level FlightAware ADS-B
Fri 08:33:05 PM 60.4950 -152.9840 268° West 461 531 34,000  Level FlightAware ADS-B
Fri 08:33:46 PM 60.4910 -153.1600 267° West 461 531 34,000  Level FlightAware ADS-B
Fri 08:34:29 PM 60.4870 -153.3460 268° West 461 531 34,000  Level FlightAware ADS-B
Fri 08:35:08 PM 60.4820 -153.5140 267° West 461 531 34,000  Level FlightAware ADS-B
Fri 08:36:05 PM 60.4770 -153.6990 267° West 460 529 34,000  Level FlightAware ADS-B
Fri 08:36:49 PM 60.4700 -153.9480 267° West 460 529 34,000  Level FlightAware ADS-B
Fri 08:37:23 PM 60.4660 -154.0950 267° West 460 529 34,000  Level FlightAware ADS-B
Fri 08:38:11 PM 60.4600 -154.2930 267° West 462 532 34,000  Level FlightAware ADS-B
Fri 08:38:56 PM 60.4540 -154.4640 266° West 462 532 34,000  Level FlightAware ADS-B
Fri 08:39:31 PM 60.4490 -154.5920 266° West 462 532 34,000  Level FlightAware ADS-B
Fri 08:40:19 PM 60.4430 -154.7690 266° West 462 532 34,000  Level FlightAware ADS-B
Fri 08:40:58 PM 60.4380 -154.9120 266° West 462 532 34,000  Level FlightAware ADS-B
Fri 08:41:46 PM 60.4320 -155.0880 266° West 462 532 34,000  Level FlightAware ADS-B
Fri 08:42:23 PM 60.4280 -155.2240 267° West 462 532 34,000  Level FlightAware ADS-B
Fri 08:42:59 PM 60.4230 -155.3560 266° West 462 532 34,000  Level FlightAware ADS-B
Fri 08:43:47 PM 60.4170 -155.5330 266° West 462 532 34,000  Level FlightAware ADS-B
Fri 08:44:23 PM 60.4120 -155.6650 266° West 462 532 34,000  Level FlightAware ADS-B
Fri 08:45:13 PM 60.4060 -155.8480 266° West 462 532 34,000  Level FlightAware ADS-B
Fri 08:45:48 PM 60.4010 -155.9770 266° West 462 532 34,000  Level FlightAware ADS-B
Fri 08:46:38 PM 60.3950 -156.1600 266° West 462 532 34,000  Level FlightAware ADS-B
Fri 08:47:12 PM 60.3910 -156.2850 266° West 462 532 34,000  Level FlightAware ADS-B
Fri 08:48:01 PM 60.3840 -156.4650 266° West 462 532 34,000  Level FlightAware ADS-B
Fri 08:48:46 PM 60.3333 -156.9833 266° West 450 518 34,000  Level Anchorage Center
Fri 08:49:05 PM 60.3333 -157.0333 270° West 450 518 34,000  Level Anchorage Center
Fri 08:50:06 PM 60.3167 -157.2833 262° West 450 518 34,000  Level Anchorage Center
Fri 08:51:06 PM 60.3000 -157.5500 263° West 450 518 34,000  Level Anchorage Center
Fri 08:52:06 PM 60.3000 -157.8000 270° West 450 518 34,000  Level Anchorage Center
Fri 08:53:07 PM 60.2833 -158.0500 262° West 450 518 34,000  Level Anchorage Center
Fri 08:54:07 PM 60.2667 -158.3500 264° West 450 518 34,000  Level Anchorage Center
Fri 08:55:07 PM 60.2500 -158.6000 262° West 450 518 34,000  Level Anchorage Center
Fri 08:56:08 PM 60.2333 -158.8500 262° West 450 518 34,000  Level Anchorage Center
Fri 08:57:08 PM 60.2167 -159.1000 262° West 450 518 34,000  Level Anchorage Center
Fri 08:58:08 PM 60.2000 -159.3500 262° West 440 506 34,000  Level Anchorage Center
Fri 08:59:09 PM 60.1833 -159.5667 261° West 440 506 34,000  Level Anchorage Center
Fri 09:00:09 PM 60.1667 -159.8000 262° West 440 506 34,000  Level Anchorage Center
Fri 09:01:09 PM 60.1333 -160.1000 258° West 440 506 34,000  Level Anchorage Center
Fri 09:02:10 PM 60.1167 -160.3500 262° West 440 506 34,000  Level Anchorage Center
Fri 09:03:10 PM 60.1000 -160.5833 262° West 440 506 34,000  Level Anchorage Center
Fri 09:04:11 PM 60.0833 -160.8333 262° West 440 506 34,000  Level Anchorage Center
Fri 09:05:11 PM 60.0667 -161.0833 262° West 450 518 34,000  Level Anchorage Center
Fri 09:06:11 PM 60.0333 -161.3333 255° West 440 506 34,000  Level Anchorage Center
Fri 09:07:12 PM 60.0167 -161.5667 262° West 440 506 34,000  Level Anchorage Center
Fri 09:08:12 PM 60.0000 -161.8167 263° West 440 506 34,000  Level Anchorage Center
Fri 09:09:12 PM 59.9667 -162.0500 254° West 440 506 34,000  Level Anchorage Center
Fri 09:10:12 PM 59.9500 -162.3000 263° West 440 506 34,000  Level Anchorage Center
Fri 09:11:13 PM 59.9333 -162.5333 262° West 430 495 34,000  Level Anchorage Center
Fri 09:12:13 PM 59.9000 -162.7667 254° West 430 495 34,000  Level Anchorage Center
Fri 09:13:13 PM 59.8833 -163.0167 263° West 440 506 34,000  Level Anchorage Center
Fri 09:14:14 PM 59.8667 -163.2500 262° West 430 495 34,000  Level Anchorage Center
Fri 09:15:14 PM 59.8333 -163.4833 254° West 440 506 34,000  Level Anchorage Center
Fri 09:16:14 PM 59.8167 -163.7333 263° West 440 506 34,000  Level Anchorage Center
Fri 09:17:15 PM 59.7833 -163.9667 254° West 450 518 34,000  Level Anchorage Center
Fri 09:18:15 PM 59.7667 -164.2167 263° West 430 495 34,000  Level Anchorage Center
Fri 09:19:15 PM 59.7333 -164.4500 254° West 440 506 34,000  Level Anchorage Center
Fri 09:20:16 PM 59.7167 -164.6833 262° West 430 495 34,000  Level Anchorage Center
Fri 09:21:16 PM 59.6833 -164.9167 254° West 440 506 34,000  Level Anchorage Center
Fri 09:22:16 PM 59.6500 -165.1500 254° West 430 495 34,000  Level Anchorage Center
Fri 09:23:48 PM 59.6000 -165.5167 255° West 430 495 34,000  Level Anchorage Center
Fri 09:24:48 PM 59.5833 -165.7500 262° West 430 495 34,000  Level Anchorage Center
Fri 09:25:48 PM 59.5500 -165.9833 254° West 430 495 34,000  Level Anchorage Center
Fri 09:26:48 PM 59.5167 -166.2167 254° West 420 483 34,000  Level Anchorage Center
Fri 09:27:48 PM 59.4833 -166.4500 254° West 440 506 34,000  Level Anchorage Center
Fri 09:28:48 PM 59.4667 -166.6500 261° West 420 483 34,000  Level Anchorage Center
Fri 09:29:48 PM 59.4333 -166.8833 254° West 430 495 34,000  Level Anchorage Center
Fri 09:30:49 PM 59.4000 -167.1167 254° West 430 495 34,000  Level Anchorage Center
Fri 09:31:48 PM 59.3667 -167.3333 253° West 430 495 34,000  Level Anchorage Center
Fri 09:32:49 PM 59.3333 -167.5667 254° West 430 495 34,000  Level Anchorage Center
Fri 09:33:49 PM 59.3000 -167.8000 254° West 440 506 34,000  Level Anchorage Center
Fri 09:34:49 PM 59.2667 -168.0333 254° West 430 495 34,000  Level Anchorage Center
Fri 09:35:49 PM 59.2333 -168.2500 253° West 430 495 34,000 100 Level Anchorage Center
Fri 09:36:49 PM 59.2000 -168.4833 255° West 430 495 34,200 750 Climbing Anchorage Center
Fri 09:37:49 PM 59.1667 -168.7000 253° West 420 483 35,500 900 Climbing Anchorage Center
Fri 09:38:49 PM 59.1333 -168.9333 255° West 430 495 36,000 250 Climbing Anchorage Center
Fri 09:39:49 PM 59.1000 -169.1667 255° West 440 506 36,000  Level Anchorage Center
Fri 09:40:50 PM 59.0667 -169.3833 253° West 420 483 36,000  Level Anchorage Center
Fri 09:41:49 PM 59.0333 -169.6000 253° West 420 483 36,000  Level Anchorage Center
Fri 09:42:49 PM 59.0000 -169.8167 253° West 420 483 36,000  Level Anchorage Center
Fri 09:43:49 PM 58.9667 -170.0333 253° West 420 483 36,000  Level Anchorage Center
Fri 09:44:49 PM 58.9333 -170.2500 253° West 420 483 36,000  Level Anchorage Center
Fri 09:45:49 PM 58.9000 -170.4667 253° West 410 472 36,000  Level Anchorage Center
Fri 09:46:49 PM 58.8667 -170.6833 254° West 410 472 36,000  Level Anchorage Center
Fri 09:47:49 PM 58.8333 -170.9000 254° West 420 483 36,000  Level Anchorage Center
Fri 09:48:50 PM 58.8000 -171.1000 252° West 420 483 36,000  Level Anchorage Center
Fri 09:49:50 PM 58.7500 -171.3000 244° Southwest 410 472 36,000  Level Anchorage Center
Fri 09:50:50 PM 58.7167 -171.5167 254° West 400 460 36,000  Level Anchorage Center
Fri 09:51:49 PM 58.6667 -171.7167 244° Southwest 410 472 36,000  Level Anchorage Center
Fri 09:52:50 PM 58.6333 -171.9167 252° West 400 460 36,000  Level Anchorage Center
Fri 09:53:50 PM 58.5833 -172.1333 246° West 420 483 36,000  Level Anchorage Center
Fri 09:54:50 PM 58.5500 -172.3333 252° West 410 472 36,000  Level Anchorage Center
Fri 09:55:50 PM 58.5000 -172.5333 244° Southwest 420 483 36,000  Level Anchorage Center
Fri 09:56:50 PM 58.4500 -172.7500 246° West 420 483 36,000  Level Anchorage Center
Fri 09:57:50 PM 58.4167 -172.9500 252° West 420 483 36,000  Level Anchorage Center
Fri 09:58:50 PM 58.3667 -173.1667 246° West 420 483 36,000  Level Anchorage Center
Fri 09:59:50 PM 58.3167 -173.3667 245° Southwest 420 483 36,000  Level Anchorage Center
Fri 10:00:50 PM 58.2667 -173.5833 246° West 430 495 36,000  Level Anchorage Center
Fri 10:01:51 PM 58.2333 -173.8000 254° West 430 495 36,000  Level Anchorage Center
Fri 10:02:51 PM 58.1833 -174.0000 245° Southwest 430 495 36,000  Level Anchorage Center
Fri 10:03:50 PM 58.1333 -174.2167 246° West 430 495 36,000  Level Anchorage Center
Fri 10:04:50 PM 58.0833 -174.4333 246° West 430 495 36,000  Level Anchorage Center
Fri 10:05:50 PM 58.0333 -174.6333 245° Southwest 430 495 36,000  Level Anchorage Center
Fri 10:06:50 PM 58.0000 -174.8500 254° West 430 495 36,000  Level Anchorage Center
Fri 10:07:51 PM 57.9500 -175.0667 247° West 440 506 36,000  Level Anchorage Center
Fri 10:08:50 PM 57.9000 -175.2833 247° West 440 506 36,000  Level Anchorage Center
Fri 10:09:51 PM 57.8333 -175.5000 240° Southwest 450 518 36,000  Level Anchorage Center
Fri 10:10:51 PM 57.7833 -175.7000 245° Southwest 450 518 36,000  Level Anchorage Center
Fri 10:11:51 PM 57.7500 -175.8833 251° West 450 518 36,000  Level Anchorage Center
Fri 10:12:51 PM 57.6833 -176.1500 245° Southwest 450 518 36,000  Level Anchorage Center
Fri 10:13:51 PM 57.6500 -176.3167 250° West 450 518 36,000  Level Anchorage Center
Fri 10:15:45 PM 57.5333 -176.8000 245° Southwest 471 542 36,000  Level Anchorage Center
Fri 10:21:00 PM 57.2419 -177.9332 244° Southwest 471 542 36,000  Level FlightAware Transoceanic
Fri 10:22:00 PM 57.1824 -178.1577 244° Southwest 471 542 36,000  Level FlightAware Transoceanic
Fri 10:23:00 PM 57.1225 -178.3815 244° Southwest 471 542 36,000  Level FlightAware Transoceanic
Fri 10:24:00 PM 57.0622 -178.6045 243° Southwest 471 542 36,000  Level FlightAware Transoceanic
Fri 10:24:01 PM 57.0833 -178.5667 243° Southwest 474 545 36,000  Level Anchorage Center
Fri 10:25:00 PM 57.0015 -178.8268 243° Southwest 471 542 36,000  Level FlightAware Transoceanic
Fri 10:26:00 PM 56.9404 -179.0484 243° Southwest 471 542 36,000  Level FlightAware Transoceanic
Fri 10:27:00 PM 56.8790 -179.2692 243° Southwest 471 542 36,000  Level FlightAware Transoceanic
Fri 10:28:00 PM 56.8171 -179.4893 243° Southwest 471 542 36,000  Level FlightAware Transoceanic
Fri 10:29:00 PM 56.7549 -179.7088 243° Southwest 471 542 36,000  Level FlightAware Transoceanic
Fri 10:30:00 PM 56.7107 -179.8960 242° Southwest 474 545 36,000  Level FlightAware Transoceanic
Fri 10:31:00 PM 56.6472 179.8851 242° Southwest 474 545 36,000  Level FlightAware Transoceanic
Fri 10:32:00 PM 56.5834 179.6668 242° Southwest 474 545 36,000  Level FlightAware Transoceanic
Fri 10:33:00 PM 56.5191 179.4493 242° Southwest 474 545 36,000  Level FlightAware Transoceanic
Fri 10:34:00 PM 56.4545 179.2326 242° Southwest 474 545 36,000  Level FlightAware Transoceanic
Fri 10:35:00 PM 56.3895 179.0166 241° Southwest 474 545 36,000  Level FlightAware Transoceanic
Fri 10:36:00 PM 56.3242 178.8013 241° Southwest 474 545 36,000  Level FlightAware Transoceanic
Fri 10:37:00 PM 56.2584 178.5867 241° Southwest 474 545 36,000  Level FlightAware Transoceanic
Fri 10:38:00 PM 56.1923 178.3730 241° Southwest 474 545 36,000  Level FlightAware Transoceanic
Fri 10:39:00 PM 56.1259 178.1599 241° Southwest 474 545 36,000  Level FlightAware Transoceanic
Fri 10:39:44 PM 56.0667 177.9833 241° Southwest 500 575 36,000  Level Anchorage Center
Fri 10:40:00 PM 56.0590 177.9476 240° Southwest 474 545 36,000  Level FlightAware Transoceanic
Fri 10:41:00 PM 55.9918 177.7360 240° Southwest 474 545 36,000  Level FlightAware Transoceanic
Fri 10:42:00 PM 55.9243 177.5251 240° Southwest 474 545 36,000  Level FlightAware Transoceanic
Fri 10:43:00 PM 55.8563 177.3150 240° Southwest 474 545 36,000  Level FlightAware Transoceanic
Fri 10:43:53 PM 55.7667 177.0833 239° Southwest 500 575 36,000  Level Anchorage Center
Fri 10:44:00 PM 55.7881 177.1056 240° Southwest 474 545 36,000  Level FlightAware Transoceanic
Fri 10:44:53 PM 55.7000 176.9000 237° Southwest 490 564 36,000  Level Anchorage Center
Fri 10:45:00 PM 55.7120 176.8835 240° Southwest 500 575 36,000  Level FlightAware Transoceanic
Fri 10:45:53 PM 55.6333 176.6667 243° Southwest 500 575 36,000  Level Anchorage Center
Fri 10:46:00 PM 55.6399 176.6660 239° Southwest 500 575 36,000  Level FlightAware Transoceanic
Fri 10:46:53 PM 55.5667 176.4833 237° Southwest 510 587 36,000  Level Anchorage Center
Fri 10:47:00 PM 55.5675 176.4492 239° Southwest 500 575 36,000  Level FlightAware Transoceanic
Fri 10:47:53 PM 55.4833 176.2500 238° Southwest 500 575 36,000  Level Anchorage Center
Fri 10:48:00 PM 55.4946 176.2332 239° Southwest 500 575 36,000  Level FlightAware Transoceanic
Fri 10:49:00 PM 55.4213 176.0181 239° Southwest 500 575 36,000  Level FlightAware Transoceanic
Fri 10:49:53 PM 55.3500 175.8333 241° Southwest 510 587 36,000  Level Anchorage Center
Fri 10:50:53 PM 55.2667 175.6000 238° Southwest 500 575 36,000  Level Anchorage Center
Fri 10:51:54 PM 55.2000 175.4167 238° Southwest 510 587 36,000  Level Anchorage Center
Fri 10:52:53 PM 55.1333 175.1833 244° Southwest 500 575 36,000  Level Anchorage Center
Fri 10:53:53 PM 55.0667 175.0000 238° Southwest 510 587 36,000  Level Anchorage Center
Fri 10:54:53 PM 54.9833 174.7667 238° Southwest 510 587 36,000  Level Anchorage Center
Fri 10:55:54 PM 54.9167 174.5833 238° Southwest 510 587 36,000  Level Anchorage Center
Fri 10:56:54 PM 54.8333 174.3667 236° Southwest 510 587 36,000  Level Anchorage Center
Fri 10:57:54 PM 54.7500 174.1333 238° Southwest 510 587 36,000  Level Anchorage Center
Fri 10:58:54 PM 54.6833 173.9500 238° Southwest 520 598 36,000  Level Anchorage Center
Fri 10:59:54 PM 54.6000 173.7333 236° Southwest 510 587 36,000  Level Anchorage Center
Fri 11:00:54 PM 54.5333 173.5500 238° Southwest 520 598 36,000  Level Anchorage Center
Fri 11:01:54 PM 54.4500 173.3167 239° Southwest 520 598 36,000  Level Anchorage Center
Fri 11:02:54 PM 54.3833 173.1500 236° Southwest 510 587 36,000  Level Anchorage Center
Fri 11:03:54 PM 54.2833 172.9167 234° Southwest 510 587 36,000  Level Anchorage Center
Fri 11:04:54 PM 54.2000 172.7000 237° Southwest 520 598 36,000  Level Anchorage Center
Fri 11:05:54 PM 54.1333 172.5167 238° Southwest 530 610 36,000  Level Anchorage Center
Fri 11:06:55 PM 54.0500 172.3000 237° Southwest 520 598 36,000  Level Anchorage Center
Fri 11:07:54 PM 53.9667 172.1333 230° Southwest 530 610 36,000  Level Anchorage Center
Fri 11:08:55 PM 53.8833 171.9167 237° Southwest 510 587 36,000  Level Anchorage Center
Fri 11:09:54 PM 53.8167 171.7500 236° Southwest 520 598 36,000  Level Anchorage Center
Fri 11:10:54 PM 53.7167 171.5333 232° Southwest 520 598 36,000  Level Anchorage Center
Fri 11:11:55 PM 53.6500 171.3500 239° Southwest 530 610 36,000  Level Anchorage Center
Fri 11:12:55 PM 53.5500 171.1500 230° Southwest 510 587 36,000  Level Anchorage Center
Fri 11:13:55 PM 53.4500 170.9333 232° Southwest 520 598 36,000  Level Anchorage Center
Fri 11:14:55 PM 53.3833 170.7667 236° Southwest 510 587 36,000  Level Anchorage Center
Fri 11:15:55 PM 53.3000 170.5500 237° Southwest 520 598 36,000  Level Anchorage Center
Fri 11:16:55 PM 53.2167 170.3833 230° Southwest 510 587 36,000  Level Anchorage Center
Fri 11:17:55 PM 53.1333 170.1833 235° Southwest 520 598 36,000  Level Anchorage Center
Fri 11:18:55 PM 53.0500 170.0167 230° Southwest 520 598 36,000  Level Anchorage Center
Fri 11:19:55 PM 52.9667 169.8000 237° Southwest 520 598 36,000  Level Anchorage Center
Fri 11:20:56 PM 52.8833 169.5833 238° Southwest 520 598 36,000  Level Anchorage Center
Fri 11:21:56 PM 52.8167 169.4000 239° Southwest 550 633 36,000  Level Anchorage Center
Fri 11:22:56 PM 52.7500 169.1667 245° Southwest 530 610 36,000  Level Anchorage Center
Fri 11:23:56 PM 52.6833 169.0000 237° Southwest 510 587 36,000  Level Anchorage Center
Fri 11:24:56 PM 52.6167 168.7667 245° Southwest 520 598 36,000  Level Anchorage Center
Fri 11:25:56 PM 52.5500 168.6000 237° Southwest 520 598 36,000  Level Anchorage Center
Fri 11:26:56 PM 52.4667 168.3667 240° Southwest 520 598 36,000  Level Anchorage Center
Fri 11:27:56 PM 52.4000 168.2000 237° Southwest 520 598 36,000  Level Anchorage Center
Fri 11:28:56 PM 52.3333 167.9833 243° Southwest 530 610 36,000  Level Anchorage Center
Fri 11:29:56 PM 52.2500 167.7667 238° Southwest 510 587 36,000  Level Anchorage Center
Fri 11:32:00 PM 52.1790 167.5700 240° Southwest  Level FlightAware Approximate
Fri 11:39:00 PM 51.7048 166.2950 239° Southwest  Level FlightAware Approximate
Fri 11:40:00 PM 51.6360 166.1150 238° Southwest  Level FlightAware Approximate
Fri 11:41:00 PM 51.5669 165.9356 238° Southwest  Level FlightAware Approximate
Fri 11:41:39 PM 51.4333 165.5500 238° Southwest 507 583 36,000  Level Anchorage Center
Fri 11:42:00 PM 51.4975 165.7567 238° Southwest  Level FlightAware Approximate
Fri 11:43:00 PM 51.4278 165.5784 238° Southwest  Level FlightAware Approximate
Fri 11:44:00 PM 51.3586 165.3999 238° Southwest  Level FlightAware Approximate
Fri 11:44:51 PM 51.2500 165.1000 237° Southwest 514 592 36,000  Level Anchorage Center
Fri 11:45:00 PM 51.2893 165.2217 238° Southwest  Level FlightAware Approximate
Fri 11:46:00 PM 51.2198 165.0441 238° Southwest  Level FlightAware Approximate
Fri 11:47:00 PM 51.1499 164.8671 238° Southwest  Level FlightAware Approximate
Fri 11:47:50 PM 50.9500 164.3833 237° Southwest 497 572 36,000  Level Anchorage Center
Fri 11:48:00 PM 50.9239 164.2910 237° Southwest 507 583 36,000  Level FlightAware Transoceanic
Fri 11:49:00 PM 50.8500 164.1134 237° Southwest 507 583 36,000  Level FlightAware Transoceanic
Fri 11:50:00 PM 50.8030 164.0087 237° Southwest 514 592 36,000  Level FlightAware Transoceanic
Fri 11:51:00 PM 50.7275 163.8289 236° Southwest 514 592 36,000  Level FlightAware Transoceanic
Fri 11:52:00 PM 50.6518 163.6497 236° Southwest 514 592 36,000  Level FlightAware Transoceanic
Fri 11:53:00 PM 50.5757 163.4710 236° Southwest 514 592 36,000  Level FlightAware Transoceanic
Fri 11:54:00 PM 50.4971 163.3029 236° Southwest 497 572 36,000  Level FlightAware Transoceanic
Fri 11:55:00 PM 50.4207 163.1248 236° Southwest 497 572 36,000  Level FlightAware Transoceanic
Fri 11:56:00 PM 50.3440 162.9473 236° Southwest 497 572 36,000  Level FlightAware Transoceanic
Fri 11:57:00 PM 50.2670 162.7704 236° Southwest 497 572 36,000  Level FlightAware Transoceanic
Fri 11:58:00 PM 50.1898 162.5941 236° Southwest 497 572 36,000  Level FlightAware Transoceanic
Fri 11:59:00 PM 50.1123 162.4183 235° Southwest 497 572 36,000  Level FlightAware Transoceanic
Sat 12:00:00 AM 50.0345 162.2431 235° Southwest 497 572 36,000  Level FlightAware Transoceanic
Sat 12:01:00 AM 49.9564 162.0685 235° Southwest 497 572 36,000  Level FlightAware Transoceanic
Sat 12:02:00 AM 49.8781 161.8944 235° Southwest 497 572 36,000  Level FlightAware Transoceanic
Sat 12:03:00 AM 49.7996 161.7209 235° Southwest 497 572 36,000  Level FlightAware Transoceanic
Sat 12:04:00 AM 49.7207 161.5480 235° Southwest 497 572 36,000  Level FlightAware Transoceanic
Sat 12:05:00 AM 49.6417 161.3756 235° Southwest 497 572 36,000  Level FlightAware Transoceanic
Sat 12:06:00 AM 49.5623 161.2038 234° Southwest 497 572 36,000  Level FlightAware Transoceanic
Sat 12:07:00 AM 49.4827 161.0326 234° Southwest 497 572 36,000 1,739 Level FlightAware Transoceanic
Sat 12:07:09 AM 49.4833 161.0333 234° Southwest 482 555 38,000  Climbing Anchorage Center
Sat 12:08:00 AM 49.4029 160.8619 234° Southwest 497 572 36,000 -1,081 Descending FlightAware Transoceanic
Sat 12:09:00 AM 49.3228 160.6917 234° Southwest 497 572 36,000  Level FlightAware Transoceanic
Sat 12:10:00 AM 49.2425 160.5221 234° Southwest 497 572 36,000  Level FlightAware Transoceanic
Sat 12:11:00 AM 49.1619 160.3531 234° Southwest 497 572 36,000  Level FlightAware Transoceanic
Sat 12:12:00 AM 49.0811 160.1846 234° Southwest 497 572 36,000 1,000 Level FlightAware Transoceanic
Sat 12:13:00 AM 49.0000 160.0167 233° Southwest 482 555 38,000 1,000 Climbing FlightAware Transoceanic
Sat 12:14:00 AM 48.9252 159.8641 233° Southwest 482 555 38,000  Level FlightAware Transoceanic
Sat 12:15:00 AM 48.8502 159.7120 233° Southwest 482 555 38,000  Level FlightAware Transoceanic
Sat 12:16:00 AM 48.7750 159.5603 233° Southwest 482 555 38,000  Level FlightAware Transoceanic
Sat 12:17:00 AM 48.6996 159.4091 233° Southwest 482 555 38,000  Level FlightAware Transoceanic
Sat 12:18:00 AM 48.6240 159.2583 233° Southwest 482 555 38,000  Level FlightAware Transoceanic
Sat 12:19:00 AM 48.5482 159.1080 233° Southwest 482 555 38,000  Level FlightAware Transoceanic
Sat 12:20:00 AM 48.4722 158.9582 233° Southwest 482 555 38,000  Level FlightAware Transoceanic
Sat 12:21:00 AM 48.3961 158.8088 232° Southwest 482 555 38,000  Level FlightAware Transoceanic
Sat 12:22:00 AM 48.3197 158.6598 232° Southwest 482 555 38,000  Level FlightAware Transoceanic
Sat 12:23:00 AM 48.2431 158.5113 232° Southwest 482 555 38,000  Level FlightAware Transoceanic
Sat 12:24:00 AM 48.1664 158.3632 232° Southwest 482 555 38,000  Level FlightAware Transoceanic
Sat 12:25:00 AM 48.0894 158.2156 232° Southwest 482 555 38,000  Level FlightAware Transoceanic
Sat 12:26:00 AM 48.0123 158.0684 232° Southwest 482 555 38,000  Level FlightAware Transoceanic
Sat 12:27:00 AM 47.9350 157.9217 232° Southwest 482 555 38,000  Level FlightAware Transoceanic
Sat 12:28:00 AM 47.8575 157.7754 232° Southwest 482 555 38,000  Level FlightAware Transoceanic
Sat 12:29:00 AM 47.7798 157.6295 232° Southwest 482 555 38,000  Level FlightAware Transoceanic
Sat 12:30:00 AM 47.7019 157.4841 231° Southwest 482 555 38,000  Level FlightAware Transoceanic
Sat 12:31:00 AM 47.6239 157.3391 231° Southwest 482 555 38,000  Level FlightAware Transoceanic
Sat 12:32:00 AM 47.5456 157.1945 231° Southwest 482 555 38,000  Level FlightAware Transoceanic
Sat 12:33:00 AM 47.4672 157.0504 231° Southwest 482 555 38,000  Level FlightAware Transoceanic
Sat 12:34:00 AM 47.3886 156.9067 231° Southwest 482 555 38,000  Level FlightAware Transoceanic
Sat 12:35:00 AM 47.3098 156.7634 231° Southwest 482 555 38,000  Level FlightAware Transoceanic
Sat 12:36:00 AM 47.2308 156.6205 231° Southwest 482 555 38,000  Level FlightAware Transoceanic
Sat 12:37:00 AM 47.1517 156.4781 231° Southwest 482 555 38,000  Level FlightAware Transoceanic
Sat 12:38:00 AM 47.0724 156.3361 231° Southwest 482 555 38,000  Level FlightAware Transoceanic
Sat 12:39:00 AM 46.9929 156.1945 230° Southwest 482 555 38,000  Level FlightAware Transoceanic
Sat 12:40:00 AM 46.9132 156.0534 230° Southwest 482 555 38,000  Level FlightAware Transoceanic
Sat 12:41:00 AM 46.8334 155.9126 230° Southwest 482 555 38,000  Level FlightAware Transoceanic
Sat 12:42:00 AM 46.7534 155.7723 230° Southwest 482 555 38,000  Level FlightAware Transoceanic
Sat 12:43:00 AM 46.6732 155.6324 230° Southwest 482 555 38,000  Level FlightAware Transoceanic
Sat 12:44:00 AM 46.5929 155.4929 230° Southwest 482 555 38,000  Level FlightAware Transoceanic
Sat 12:45:00 AM 46.5124 155.3539 230° Southwest 482 555 38,000  Level FlightAware Transoceanic
Sat 12:46:00 AM 46.4317 155.2152 230° Southwest 482 555 38,000  Level FlightAware Transoceanic
Sat 12:47:00 AM 46.3508 155.0770 230° Southwest 482 555 38,000  Level FlightAware Transoceanic
Sat 12:48:00 AM 46.2698 154.9391 230° Southwest 482 555 38,000  Level FlightAware Transoceanic
Sat 12:49:00 AM 46.1886 154.8017 229° Southwest 482 555 38,000  Level FlightAware Transoceanic
Sat 12:50:00 AM 46.1073 154.6646 229° Southwest 482 555 38,000  Level FlightAware Transoceanic
Sat 12:51:00 AM 46.0258 154.5280 229° Southwest 482 555 38,000  Level FlightAware Transoceanic
Sat 12:52:00 AM 45.9441 154.3918 229° Southwest 482 555 38,000  Level FlightAware Transoceanic
Sat 12:53:00 AM 45.8623 154.2560 229° Southwest 482 555 38,000  Level FlightAware Transoceanic
Sat 12:54:00 AM 45.7803 154.1205 229° Southwest 482 555 38,000  Level FlightAware Transoceanic
Sat 12:55:00 AM 45.6981 153.9855 229° Southwest 482 555 38,000  Level FlightAware Transoceanic
Sat 12:56:00 AM 45.6158 153.8509 229° Southwest 482 555 38,000 29 Level FlightAware Transoceanic
Sat 12:57:00 AM 45.5222 153.7242 224° Southwest  Level FlightAware Approximate
Sat 12:58:00 AM 45.4285 153.5978 223° Southwest  Level FlightAware Approximate
Sat 12:59:00 AM 45.4330 153.5826 228° Southwest  Level FlightAware Approximate
Sat 01:00:00 AM 45.3467 153.4449 228° Southwest  Level FlightAware Approximate
Sat 01:01:00 AM 45.2602 153.3076 228° Southwest  Level FlightAware Approximate
Sat 01:02:00 AM 45.1735 153.1707 228° Southwest  Level FlightAware Approximate
Sat 01:03:00 AM 45.0867 153.0343 228° Southwest  Level FlightAware Approximate
Sat 01:04:00 AM 44.9997 152.8983 228° Southwest  Level FlightAware Approximate
Sat 01:05:00 AM 44.9126 152.7627 228° Southwest  Level FlightAware Approximate
Sat 01:06:00 AM 44.8253 152.6275 228° Southwest  Level FlightAware Approximate
Sat 01:07:00 AM 44.7378 152.4927 228° Southwest  Level FlightAware Approximate
Sat 01:08:00 AM 44.6502 152.3583 228° Southwest  Level FlightAware Approximate
Sat 01:09:00 AM 44.5624 152.2243 227° Southwest  Level FlightAware Approximate
Sat 01:10:00 AM 44.4744 152.0907 227° Southwest  Level FlightAware Approximate
Sat 01:11:00 AM 44.3864 151.9576 227° Southwest  Level FlightAware Approximate
Sat 01:12:00 AM 44.2981 151.8248 227° Southwest  Level FlightAware Approximate
Sat 01:13:00 AM 44.2097 151.6924 227° Southwest  Level FlightAware Approximate
Sat 01:14:00 AM 44.1212 151.5604 227° Southwest  Level FlightAware Approximate
Sat 01:15:00 AM 44.0325 151.4289 227° Southwest  Level FlightAware Approximate
Sat 01:16:00 AM 43.9436 151.2977 227° Southwest  Level FlightAware Approximate
Sat 01:17:00 AM 43.8546 151.1669 227° Southwest  Level FlightAware Approximate
Sat 01:18:00 AM 43.7654 151.0365 227° Southwest  Level FlightAware Approximate
Sat 01:19:00 AM 43.6762 150.9064 227° Southwest  Level FlightAware Approximate
Sat 01:20:00 AM 43.5867 150.7768 226° Southwest  Level FlightAware Approximate
Sat 01:21:00 AM 43.4971 150.6476 226° Southwest  Level FlightAware Approximate
Sat 01:22:00 AM 43.4074 150.5187 226° Southwest  Level FlightAware Approximate
Sat 01:23:00 AM 43.3175 150.3902 226° Southwest  Level FlightAware Approximate
Sat 01:24:00 AM 43.2275 150.2621 226° Southwest  Level FlightAware Approximate
Sat 01:25:00 AM 43.1373 150.1344 226° Southwest  Level FlightAware Approximate
Sat 01:26:00 AM 43.0470 150.0070 226° Southwest  Level FlightAware Approximate
Sat 01:27:00 AM 42.9565 149.8801 226° Southwest  Level FlightAware Approximate
Sat 01:28:00 AM 42.8659 149.7535 226° Southwest  Level FlightAware Approximate
Sat 01:28:59 AM 42.9790 149.8990 226° Southwest 443 510 39,000  Level FlightAware ADS-B
Sat 01:29:00 AM 42.7752 149.6272 226° Southwest  Level FlightAware Approximate
Sat 01:29:40 AM 42.9230 149.8230 225° Southwest 443 510 39,000  Level FlightAware ADS-B
Sat 01:30:33 AM 42.8540 149.7280 225° Southwest 444 511 39,000  Level FlightAware ADS-B
Sat 01:31:16 AM 42.7850 149.6310 226° Southwest 440 506 39,000  Level FlightAware ADS-B
Sat 01:32:01 AM 42.7170 149.5370 225° Southwest 439 505 39,000  Level FlightAware ADS-B
Sat 01:32:42 AM 42.6580 149.4560 225° Southwest 439 505 39,000  Level FlightAware ADS-B
Sat 01:33:21 AM 42.6010 149.3780 225° Southwest 437 503 39,000  Level FlightAware ADS-B
Sat 01:34:01 AM 42.5470 149.3030 226° Southwest 437 503 39,000  Level FlightAware ADS-B
Sat 01:34:46 AM 42.4780 149.2080 225° Southwest 437 503 39,000  Level FlightAware ADS-B
Sat 01:35:41 AM 42.4000 149.1020 225° Southwest 439 505 39,000  Level FlightAware ADS-B
Sat 01:36:26 AM 42.3350 149.0150 225° Southwest 439 505 39,000  Level FlightAware ADS-B
Sat 01:37:06 AM 42.2750 148.9330 225° Southwest 439 505 39,000  Level FlightAware ADS-B
Sat 01:37:51 AM 42.2100 148.8460 225° Southwest 440 506 39,000  Level FlightAware ADS-B
Sat 01:38:33 AM 42.1510 148.7650 226° Southwest 441 507 39,000  Level FlightAware ADS-B
Sat 01:39:11 AM 42.0920 148.6870 224° Southwest 442 509 39,000  Level FlightAware ADS-B
Sat 01:39:56 AM 42.0260 148.5980 225° Southwest 442 509 39,000  Level FlightAware ADS-B
Sat 01:40:31 AM 41.9750 148.5300 225° Southwest 449 517 39,000  Level FlightAware ADS-B
Sat 01:41:02 AM 41.9310 148.4710 225° Southwest 450 518 39,000  Level FlightAware ADS-B
Sat 01:41:46 AM 41.8640 148.3820 225° Southwest 451 519 39,000  Level FlightAware ADS-B
Sat 01:42:31 AM 41.7970 148.2930 225° Southwest 452 520 39,000  Level FlightAware ADS-B
Sat 01:43:11 AM 41.7370 148.2150 224° Southwest 452 520 39,000  Level FlightAware ADS-B
Sat 01:43:52 AM 41.6760 148.1370 224° Southwest 448 516 39,000  Level FlightAware ADS-B
Sat 01:44:36 AM 41.6090 148.0490 224° Southwest 448 516 39,000  Level FlightAware ADS-B
Sat 01:45:16 AM 41.5480 147.9710 224° Southwest 449 517 39,000  Level FlightAware ADS-B
Sat 01:46:01 AM 41.4820 147.8870 224° Southwest 450 518 39,000  Level FlightAware ADS-B
Sat 01:46:36 AM 41.4270 147.8150 224° Southwest 450 518 39,000  Level FlightAware ADS-B
Sat 01:47:26 AM 41.3500 147.7180 223° Southwest 450 518 39,000  Level FlightAware ADS-B
Sat 01:48:06 AM 41.2900 147.6430 223° Southwest 451 519 39,000  Level FlightAware ADS-B
Sat 01:48:51 AM 41.2210 147.5550 224° Southwest 451 519 39,000  Level FlightAware ADS-B
Sat 01:49:26 AM 41.1670 147.4860 224° Southwest 451 519 39,000  Level FlightAware ADS-B
Sat 01:50:06 AM 41.1060 147.4080 224° Southwest 451 519 39,000  Level FlightAware ADS-B
Sat 01:50:52 AM 41.0370 147.3220 223° Southwest 451 519 39,000  Level FlightAware ADS-B
Sat 01:51:49 AM 40.9480 147.2100 224° Southwest 452 520 39,000  Level FlightAware ADS-B
Sat 01:52:34 AM 40.8780 147.1240 223° Southwest 453 521 39,000  Level FlightAware ADS-B
Sat 01:53:14 AM 40.8160 147.0470 223° Southwest 453 521 39,000  Level FlightAware ADS-B
Sat 01:53:59 AM 40.7460 146.9600 223° Southwest 459 528 39,000  Level FlightAware ADS-B
Sat 01:54:39 AM 40.6840 146.8830 223° Southwest 460 529 39,000  Level FlightAware ADS-B
Sat 01:55:34 AM 40.6060 146.7870 223° Southwest 460 529 39,000  Level FlightAware ADS-B
Sat 01:56:14 AM 40.5380 146.7030 223° Southwest 462 532 39,000  Level FlightAware ADS-B
Sat 01:56:59 AM 40.4660 146.6150 223° Southwest 462 532 39,000  Level FlightAware ADS-B
Sat 01:57:41 AM 40.4050 146.5400 223° Southwest 462 532 39,000  Level FlightAware ADS-B
Sat 01:58:20 AM 40.3410 146.4620 223° Southwest 461 531 39,000  Level FlightAware ADS-B
Sat 01:59:11 AM 40.2690 146.3750 223° Southwest 461 531 39,000  Level FlightAware ADS-B
Sat 01:59:54 AM 40.1930 146.2810 223° Southwest 462 532 39,000  Level FlightAware ADS-B
Sat 02:00:39 AM 40.1220 146.1960 222° Southwest 461 531 39,000  Level FlightAware ADS-B
Sat 02:01:22 AM 40.0760 146.1410 222° Southwest 462 532 39,000  Level FlightAware ADS-B
Sat 02:02:06 AM 39.9860 146.0340 222° Southwest 462 532 39,000  Level FlightAware ADS-B
Sat 02:02:49 AM 39.9240 145.9580 223° Southwest 463 533 39,000  Level FlightAware ADS-B
Sat 02:03:31 AM 39.8510 145.8710 222° Southwest 462 532 39,000  Level FlightAware ADS-B
Sat 02:04:29 AM 39.7710 145.7780 222° Southwest 462 532 39,000  Level FlightAware ADS-B
Sat 02:05:06 AM 39.7210 145.7200 222° Southwest 462 532 39,000  Level FlightAware ADS-B
Sat 02:05:47 AM 39.6660 145.6550 222° Southwest 462 532 39,000  Level FlightAware ADS-B
Sat 02:06:35 AM 39.6010 145.5790 222° Southwest 462 532 39,000  Level FlightAware ADS-B
Sat 02:07:11 AM 39.5530 145.5220 222° Southwest 462 532 39,000  Level FlightAware ADS-B
Sat 02:08:12 AM 39.4700 145.4260 222° Southwest 462 532 39,000  Level FlightAware ADS-B
Sat 02:08:48 AM 39.4220 145.3700 222° Southwest 462 532 39,000  Level FlightAware ADS-B
Sat 02:09:35 AM 39.3580 145.2960 222° Southwest 462 532 39,000  Level FlightAware ADS-B
Sat 02:10:12 AM 39.3080 145.2370 222° Southwest 462 532 39,000  Level FlightAware ADS-B
Sat 02:10:53 AM 39.2530 145.1730 222° Southwest 462 532 39,000  Level FlightAware ADS-B
Sat 02:11:39 AM 39.1910 145.1010 222° Southwest 462 532 39,000  Level FlightAware ADS-B
Sat 02:12:15 AM 39.1420 145.0440 222° Southwest 462 532 39,000  Level FlightAware ADS-B
Sat 02:13:04 AM 39.0760 144.9680 222° Southwest 462 532 39,000  Level FlightAware ADS-B
Sat 02:13:40 AM 39.0270 144.9110 222° Southwest 462 532 39,000  Level FlightAware ADS-B
Sat 02:16:00 AM 38.8019 144.6521 222° Southwest  Level FlightAware Approximate
Sat 02:17:00 AM 38.7050 144.5420 222° Southwest  Level FlightAware Approximate
Sat 02:18:00 AM 38.6080 144.4322 222° Southwest  Level FlightAware Approximate
Sat 02:19:00 AM 38.5109 144.3227 221° Southwest  Level FlightAware Approximate
Sat 02:20:00 AM 38.4137 144.2135 221° Southwest  Level FlightAware Approximate
Sat 02:21:00 AM 38.3164 144.1046 221° Southwest  Level FlightAware Approximate
Sat 02:22:00 AM 38.2189 143.9960 221° Southwest  Level FlightAware Approximate
Sat 02:23:00 AM 38.1214 143.8877 221° Southwest  Level FlightAware Approximate
Sat 02:24:00 AM 38.0238 143.7796 221° Southwest  Level FlightAware Approximate
Sat 02:25:00 AM 37.9261 143.6719 221° Southwest  Level FlightAware Approximate
Sat 02:26:00 AM 37.8283 143.5644 221° Southwest  Level FlightAware Approximate
Sat 02:27:00 AM 37.7224 143.4709 212° Southwest  Level FlightAware Approximate
Sat 02:27:11 AM 37.4940 143.6460 212° Southwest 520 598 39,000  Level FlightAware ADS-B
Sat 02:27:55 AM 37.4360 143.7300 131° Southeast 520 598 39,000  Level FlightAware ADS-B
Sat 02:28:31 AM 37.3880 143.8000 131° Southeast 520 598 39,000  Level FlightAware ADS-B
Sat 02:29:19 AM 37.3240 143.8930 131° Southeast 520 598 39,000  Level FlightAware ADS-B
Sat 02:29:56 AM 37.2740 143.9650 131° Southeast 520 598 39,000  Level FlightAware ADS-B
Sat 02:30:40 AM 37.2150 144.0500 131° Southeast 520 598 39,000  Level FlightAware ADS-B
Sat 02:31:29 AM 37.1490 144.1450 131° Southeast 520 598 39,000  Level FlightAware ADS-B
Sat 02:32:05 AM 37.1010 144.2150 131° Southeast 520 598 39,000  Level FlightAware ADS-B
Sat 02:32:53 AM 37.0360 144.3080 131° Southeast 520 598 39,000  Level FlightAware ADS-B
Sat 02:33:30 AM 36.9870 144.3790 131° Southeast 520 598 39,000  Level FlightAware ADS-B
Sat 02:34:09 AM 36.9340 144.4550 131° Southeast 520 598 39,000  Level FlightAware ADS-B
Sat 02:34:57 AM 36.8700 144.5470 131° Southeast 520 598 39,000  Level FlightAware ADS-B
Sat 02:36:19 AM 36.7600 144.7050 131° Southeast 520 598 39,000  Level FlightAware ADS-B
Sat 02:36:58 AM 36.7080 144.7800 131° Southeast 520 598 39,000 -1,211 Level FlightAware ADS-B
Sat 02:39:00 AM 36.6457 144.4611 256° West  Level Estimated
Sat 02:40:00 AM 36.6147 144.3045 256° West  Level Estimated
Sat 02:41:00 AM 36.5835 144.1479 256° West  Level Estimated
Sat 02:41:51 AM 36.1310 143.0760 256° West 479 551 32,300  Level FlightAware ADS-B
Sat 02:42:00 AM 36.5522 143.9915 256° West  Level Estimated
Sat 02:42:36 AM 36.0740 142.9820 233° Southwest 471 542 31,500  Level FlightAware ADS-B
Sat 02:43:31 AM 36.0000 142.8590 233° Southwest 471 542 30,700 -690 Descending FlightAware ADS-B
Sat 02:44:29 AM 35.9280 142.7530 230° Southwest 458 527 30,200 -941 Descending FlightAware ADS-B
Sat 02:45:13 AM 35.8530 142.6690 222° Southwest 426 490 29,100 -1,333 Descending FlightAware ADS-B
Sat 02:45:50 AM 35.8070 142.6190 221° Southwest 398 458 28,400 -1,364 Descending FlightAware ADS-B
Sat 02:46:41 AM 35.7320 142.5330 223° Southwest 386 444 27,100 -1,563 Descending FlightAware ADS-B
Sat 02:47:26 AM 35.6750 142.4690 222° Southwest 370 426 25,900 -1,753 Descending FlightAware ADS-B
Sat 02:48:10 AM 35.6230 142.4120 222° Southwest 357 411 24,500 -1,806 Descending FlightAware ADS-B
Sat 02:49:09 AM 35.5550 142.3330 223° Southwest 352 405 22,800 -1,818 Descending FlightAware ADS-B
Sat 02:49:49 AM 35.5050 142.2720 225° Southwest 345 397 21,500 -1,971 Descending FlightAware ADS-B
Sat 02:50:19 AM 35.4880 142.2210 248° West 340 391 20,500 -1,886 Descending FlightAware ADS-B
Sat 02:50:59 AM 35.5040 142.1430 284° West 348 400 19,300 -1,658 Descending FlightAware ADS-B
Sat 02:51:35 AM 35.5350 142.0920 307° West 351 404 18,400 -1,227 Descending FlightAware ADS-B
Sat 02:52:27 AM 35.5720 142.0060 298° West 348 400 17,500 -1,467 Descending FlightAware ADS-B
Sat 02:53:05 AM 35.5910 141.9290 287° West 338 389 16,200 -989 Descending FlightAware ADS-B
Sat 02:53:58 AM 35.5870 141.8270 267° West 330 380 16,000 -125 Descending FlightAware ADS-B
Sat 02:54:41 AM 35.5820 141.7460 266° West 333 383 16,000 -400 Level FlightAware ADS-B
Sat 02:55:28 AM 35.5860 141.6590 273° West 334 384 15,400 -360 Descending FlightAware ADS-B
Sat 02:56:21 AM 35.6000 141.5750 282° West 334 384 15,400 -1,596 Level FlightAware ADS-B
Sat 02:57:02 AM 35.6410 141.4940 302° West 326 375 12,900 -2,400 Descending FlightAware ADS-B
Sat 02:57:56 AM 35.6690 141.4080 292° West 321 369 11,600 -1,516 Descending FlightAware ADS-B
Sat 02:58:37 AM 35.6940 141.3350 293° West 315 362 10,500 -1,146 Descending FlightAware ADS-B
Sat 02:59:25 AM 35.7210 141.2550 293° West 288 331 9,900 -786 Descending FlightAware ADS-B
Sat 03:00:01 AM 35.7360 141.2080 291° West 279 321 9,400 -476 Descending FlightAware ADS-B
Sat 03:00:28 AM 35.7470 141.1740 292° West 279 321 9,400 -290 Level FlightAware ADS-B
Sat 03:01:03 AM 35.7670 141.1140 292° West 272 313 9,100 -290 Descending FlightAware ADS-B
Sat 03:01:30 AM 35.7790 141.0790 293° West 271 312 9,100  Level FlightAware ADS-B
Sat 03:01:58 AM 35.7940 141.0340 292° West 272 313 9,100  Level FlightAware ADS-B
Sat 03:02:25 AM 35.8070 140.9940 292° West 271 312 9,100 -667 Level FlightAware ADS-B
Sat 03:02:52 AM 35.8200 140.9550 292° West 271 312 8,500 -923 Descending FlightAware ADS-B
Sat 03:03:30 AM 35.8360 140.9070 292° West 272 313 8,100 -358 Descending FlightAware ADS-B
Sat 03:03:59 AM 35.8490 140.8620 290° West 271 312 8,100  Level FlightAware ADS-B
Sat 03:04:15 AM 35.8530 140.8320 279° West 265 305 8,100  Level FlightAware ADS-B
Sat 03:05:01 AM 35.8620 140.7680 280° West 265 305 8,100 135 Level FlightAware ADS-B
Sat 03:05:44 AM 35.8880 140.7060 297° West 269 310 8,300 -696 Climbing FlightAware ADS-B
Sat 03:06:10 AM 35.9080 140.6730 307° West 268 308 7,300 -1,286 Descending FlightAware ADS-B
Sat 03:06:40 AM 35.9310 140.6360 308° West 269 310 7,100 -171 Descending FlightAware ADS-B
Sat 03:07:20 AM 35.9610 140.5870 307° West 261 300 7,100  Level FlightAware ADS-B
Sat 03:07:50 AM 35.9830 140.5490 306° West 265 305 7,100  Level FlightAware ADS-B
Sat 03:08:15 AM 36.0020 140.5200 309° West 266 306 7,100  Level FlightAware ADS-B
Sat 03:08:46 AM 36.0220 140.4860 306° West 260 299 7,100 -321 Level FlightAware ADS-B
Sat 03:09:11 AM 36.0410 140.4540 306° West 258 297 6,800 -906 Descending FlightAware ADS-B
Sat 03:09:39 AM 36.0630 140.4190 308° West 249 287 6,300 -792 Descending FlightAware ADS-B
Sat 03:10:04 AM 36.0790 140.3910 305° West 230 265 6,100 -218 Descending FlightAware ADS-B
Sat 03:10:34 AM 36.0990 140.3580 307° West 226 260 6,100  Level FlightAware ADS-B
Sat 03:10:59 AM 36.1140 140.3320 306° West 229 264 6,100  Level FlightAware ADS-B
Sat 03:11:31 AM 36.1200 140.3070 287° West 217 250 6,100 -200 Level FlightAware ADS-B
Sat 03:11:59 AM 36.1200 140.2610 270° West 204 235 5,900 -792 Descending FlightAware ADS-B
Sat 03:12:24 AM 36.1200 140.2320 270° West 203 234 5,400 -1,320 Descending FlightAware ADS-B
Sat 03:12:49 AM 36.1190 140.2010 268° West 203 234 4,800 -1,435 Descending FlightAware ADS-B
Sat 03:13:10 AM 36.1100 140.1830 238° Southwest 203 234 4,300 -1,400 Descending FlightAware ADS-B
Sat 03:13:19 AM 36.1010 140.1780 204° Southwest 202 232 4,100 -500 Descending FlightAware ADS-B
Sat 03:13:34 AM 36.0870 140.1770 183° South 195 224 4,100  Level FlightAware ADS-B
Sat 03:14:08 AM 36.0580 140.1770 180° South 203 234 4,100  Level FlightAware ADS-B
Sat 03:14:32 AM 36.0360 140.1800 174° South 196 226 4,100  Level FlightAware ADS-B
Sat 03:14:46 AM 36.0250 140.1860 156° South 182 209 4,100  Level FlightAware ADS-B
Sat 03:15:15 AM 36.0030 140.2020 150° Southeast 180 207 4,100  Level FlightAware ADS-B
Sat 03:15:25 AM 35.9970 140.2070 146° Southeast 179 206 4,100  Level FlightAware ADS-B
Sat 03:16:08 AM 35.9650 140.2300 150° Southeast 172 198 4,100  Level FlightAware ADS-B
Sat 03:16:29 AM 35.9480 140.2420 150° Southeast 174 200 4,100 -245 Level FlightAware ADS-B
Sat 03:16:57 AM 35.9390 140.2480 152° Southeast 173 199 3,900 -966 Descending FlightAware ADS-B
Sat 03:17:56 AM 35.8870 140.2860 149° Southeast 180 207 2,700 -1,085 Descending FlightAware ADS-B
Sat 03:18:31 AM 35.8630 140.3040 149° Southeast 171 197 2,200 -873 Descending FlightAware ADS-B
Sat 03:18:51 AM 35.8470 140.3150 151° Southeast 169 194 1,900 -873 Descending FlightAware ADS-B
Sat 03:19:26 AM 35.8250 140.3310 149° Southeast 148 170 1,400 -800 Descending FlightAware ADS-B
Sat 03:19:51 AM 35.8110 140.3410 150° Southeast 143 165 1,100 -764 Descending FlightAware ADS-B
Sat 03:20:21 AM 35.7930 140.3550 148° Southeast 146 168 700 -358 Descending FlightAware ADS-B
Sat 03:20:58 AM 35.7760 140.3670 150° Southeast 146 168 700  Level FlightAware ADS-B

Login

Don't have an account? Register now (free) for customized features, flight alerts, and more!